DAL147 LOWW-KATL
Flight info
| Callsign | DAL147 |
|---|---|
| Flight time | 10h 16m |
| Altitude | 32000 |
| Route | MEDIX DCT RENKA L610 STAUB DCT UPALA Z744 LEPSA DCT ADKUV DCT NIK L610 KOPUL Q60 OKSAW/N0473F340 DCT BIBPE DCT ARPAK DCT FELCA DCT OFSOX DCT SLANY DCT LUNIG DCT TOBOR/M083F350 NATC ELSIR/N0472F360 N404E EBONY/N0471F380 DCT ENE DCT BAF Q448 PTW J48 MOL DCT FLASK OZZZI2 |
| Aircraft | L101/H-SDFHIRWXY/S |
Departure
| Time | 2026-05-06 12:43 |
|---|---|
| Airport | Vienna International Airport (LOWW) |
Arrival
| Time | 2026-05-06 23:00 |
|---|---|
| Airport | Hartsfield Jackson Atlanta International Airport (KATL) |
| Time | Latitude | Longitude | Altitude | Speed | Heading |
|---|---|---|---|---|---|
| 2026-05-06 11:31 | 48.11853 | 16.55997 | 613 ft | 0 kts | 124° |
| 2026-05-06 12:22 | 48.11856 | 16.55991 | 613 ft | 3 kts | 124° |
| 2026-05-06 12:22 | 48.11872 | 16.55958 | 629 ft | 3 kts | 129° |
| 2026-05-06 12:23 | 48.11890 | 16.55929 | 613 ft | 4 kts | 144° |
| 2026-05-06 12:23 | 48.11912 | 16.55915 | 628 ft | 4 kts | 195° |
| 2026-05-06 12:23 | 48.11917 | 16.55917 | 628 ft | 0 kts | 206° |
| 2026-05-06 12:30 | 48.11916 | 16.55916 | 628 ft | 1 kts | 206° |
| 2026-05-06 12:31 | 48.11907 | 16.55910 | 628 ft | 1 kts | 205° |
| 2026-05-06 12:31 | 48.11905 | 16.55909 | 628 ft | 1 kts | 206° |
| 2026-05-06 12:31 | 48.11894 | 16.55901 | 628 ft | 3 kts | 206° |
| 2026-05-06 12:31 | 48.11874 | 16.55886 | 624 ft | 4 kts | 206° |
| 2026-05-06 12:32 | 48.11845 | 16.55865 | 616 ft | 5 kts | 205° |
| 2026-05-06 12:32 | 48.11809 | 16.55839 | 625 ft | 6 kts | 205° |
| 2026-05-06 12:32 | 48.11767 | 16.55809 | 628 ft | 7 kts | 205° |
| 2026-05-06 12:32 | 48.11721 | 16.55782 | 622 ft | 6 kts | 181° |
| 2026-05-06 12:33 | 48.11689 | 16.55816 | 624 ft | 6 kts | 128° |
| 2026-05-06 12:33 | 48.11668 | 16.55868 | 626 ft | 6 kts | 117° |
| 2026-05-06 12:33 | 48.11647 | 16.55930 | 620 ft | 7 kts | 116° |
| 2026-05-06 12:33 | 48.11624 | 16.55999 | 623 ft | 8 kts | 116° |
| 2026-05-06 12:34 | 48.11600 | 16.56074 | 625 ft | 8 kts | 116° |
| 2026-05-06 12:34 | 48.11573 | 16.56155 | 625 ft | 9 kts | 116° |
| 2026-05-06 12:34 | 48.11545 | 16.56244 | 626 ft | 10 kts | 116° |
| 2026-05-06 12:34 | 48.11514 | 16.56337 | 624 ft | 10 kts | 116° |
| 2026-05-06 12:35 | 48.11482 | 16.56436 | 628 ft | 11 kts | 116° |
| 2026-05-06 12:35 | 48.11448 | 16.56538 | 628 ft | 11 kts | 116° |
| 2026-05-06 12:35 | 48.11414 | 16.56644 | 625 ft | 12 kts | 116° |
| 2026-05-06 12:35 | 48.11378 | 16.56753 | 624 ft | 12 kts | 115° |
| 2026-05-06 12:36 | 48.11342 | 16.56866 | 624 ft | 12 kts | 116° |
| 2026-05-06 12:36 | 48.11305 | 16.56981 | 621 ft | 13 kts | 116° |
| 2026-05-06 12:36 | 48.11266 | 16.57100 | 624 ft | 13 kts | 116° |
| 2026-05-06 12:36 | 48.11226 | 16.57221 | 624 ft | 13 kts | 116° |
| 2026-05-06 12:37 | 48.11186 | 16.57343 | 622 ft | 13 kts | 116° |
| 2026-05-06 12:37 | 48.11145 | 16.57469 | 628 ft | 14 kts | 116° |
| 2026-05-06 12:37 | 48.11103 | 16.57597 | 622 ft | 14 kts | 116° |
| 2026-05-06 12:37 | 48.11061 | 16.57726 | 628 ft | 14 kts | 116° |
| 2026-05-06 12:38 | 48.11009 | 16.57849 | 625 ft | 14 kts | 131° |
| 2026-05-06 12:38 | 48.11035 | 16.57931 | 618 ft | 10 kts | 2° |
| 2026-05-06 12:38 | 48.11109 | 16.57906 | 629 ft | 12 kts | 343° |
| 2026-05-06 12:38 | 48.11191 | 16.57872 | 626 ft | 13 kts | 344° |
| 2026-05-06 12:39 | 48.11281 | 16.57834 | 620 ft | 14 kts | 343° |
| 2026-05-06 12:39 | 48.11378 | 16.57793 | 626 ft | 15 kts | 344° |
| 2026-05-06 12:39 | 48.11484 | 16.57748 | 625 ft | 16 kts | 345° |
| 2026-05-06 12:39 | 48.11598 | 16.57700 | 620 ft | 18 kts | 344° |
| 2026-05-06 12:40 | 48.11720 | 16.57649 | 620 ft | 19 kts | 344° |
| 2026-05-06 12:40 | 48.11849 | 16.57594 | 626 ft | 17 kts | 344° |
| 2026-05-06 12:40 | 48.11951 | 16.57551 | 620 ft | 10 kts | 345° |
| 2026-05-06 12:40 | 48.11985 | 16.57597 | 624 ft | 7 kts | 86° |
| 2026-05-06 12:41 | 48.11978 | 16.57676 | 619 ft | 8 kts | 102° |
| 2026-05-06 12:41 | 48.11966 | 16.57762 | 620 ft | 9 kts | 102° |
| 2026-05-06 12:41 | 48.11933 | 16.57832 | 629 ft | 8 kts | 152° |
| 2026-05-06 12:41 | 48.11878 | 16.57859 | 624 ft | 9 kts | 163° |
| 2026-05-06 12:42 | 48.11833 | 16.57879 | 626 ft | 0 kts | 164° |
| 2026-05-06 12:42 | 48.11830 | 16.57880 | 624 ft | 1 kts | 164° |
| 2026-05-06 12:42 | 48.11768 | 16.57906 | 626 ft | 31 kts | 164° |
| 2026-05-06 12:43 | 48.11324 | 16.58095 | 618 ft | 100 kts | 164° |
| 2026-05-06 12:43 | 48.10450 | 16.58462 | 633 ft | 157 kts | 163° |
| 2026-05-06 12:43 | 48.09342 | 16.58930 | 1262 ft | 169 kts | 165° |
| 2026-05-06 12:43 | 48.08254 | 16.59419 | 2386 ft | 156 kts | 166° |
| 2026-05-06 12:44 | 48.07251 | 16.59939 | 3358 ft | 154 kts | 165° |
| 2026-05-06 12:44 | 48.06189 | 16.60505 | 3849 ft | 177 kts | 164° |
| 2026-05-06 12:44 | 48.04990 | 16.61134 | 3793 ft | 191 kts | 164° |
| 2026-05-06 12:44 | 48.03578 | 16.61862 | 3735 ft | 232 kts | 164° |
| 2026-05-06 12:45 | 48.02022 | 16.62654 | 3692 ft | 244 kts | 164° |
| 2026-05-06 12:45 | 48.00404 | 16.63482 | 3808 ft | 245 kts | 164° |
| 2026-05-06 12:45 | 47.97163 | 16.65116 | 4618 ft | 247 kts | 165° |
| 2026-05-06 12:46 | 47.95521 | 16.65935 | 4956 ft | 251 kts | 169° |
| 2026-05-06 12:46 | 47.93793 | 16.65942 | 5282 ft | 255 kts | 199° |
| 2026-05-06 12:46 | 47.92312 | 16.64527 | 6058 ft | 256 kts | 228° |
| 2026-05-06 12:46 | 47.91558 | 16.62176 | 7065 ft | 255 kts | 256° |
| 2026-05-06 12:47 | 47.91553 | 16.59513 | 7693 ft | 271 kts | 274° |
| 2026-05-06 12:47 | 47.92048 | 16.56701 | 8258 ft | 285 kts | 285° |
| 2026-05-06 12:47 | 47.92812 | 16.53999 | 9337 ft | 277 kts | 290° |
| 2026-05-06 12:47 | 47.93656 | 16.51402 | 10089 ft | 282 kts | 291° |
| 2026-05-06 12:48 | 47.94555 | 16.48686 | 10371 ft | 303 kts | 291° |
| 2026-05-06 12:48 | 47.95525 | 16.45737 | 10474 ft | 329 kts | 292° |
| 2026-05-06 12:48 | 47.96550 | 16.42595 | 10583 ft | 352 kts | 292° |
| 2026-05-06 12:48 | 47.97668 | 16.39160 | 10764 ft | 374 kts | 292° |
| 2026-05-06 12:49 | 47.98809 | 16.35673 | 11360 ft | 378 kts | 292° |
| 2026-05-06 12:49 | 47.99966 | 16.32182 | 12512 ft | 369 kts | 292° |
| 2026-05-06 12:49 | 48.01110 | 16.28739 | 13322 ft | 372 kts | 292° |
| 2026-05-06 12:49 | 48.01878 | 16.26419 | 13556 ft | 382 kts | 292° |
| 2026-05-06 12:50 | 48.03066 | 16.22815 | 14071 ft | 388 kts | 292° |
| 2026-05-06 12:50 | 48.04251 | 16.19221 | 14986 ft | 385 kts | 292° |
| 2026-05-06 12:50 | 48.05835 | 16.14399 | 15705 ft | 395 kts | 292° |
| 2026-05-06 12:50 | 48.07047 | 16.10703 | 16477 ft | 397 kts | 292° |
| 2026-05-06 12:51 | 48.07871 | 16.08186 | 16952 ft | 400 kts | 292° |
| 2026-05-06 12:51 | 48.09096 | 16.04439 | 17636 ft | 404 kts | 292° |
| 2026-05-06 12:51 | 48.10319 | 16.00693 | 18339 ft | 407 kts | 291° |
| 2026-05-06 12:51 | 48.11568 | 15.96860 | 18952 ft | 412 kts | 291° |
| 2026-05-06 12:52 | 48.12828 | 15.92985 | 19610 ft | 416 kts | 291° |
| 2026-05-06 12:52 | 48.14095 | 15.89076 | 20316 ft | 420 kts | 291° |
| 2026-05-06 12:52 | 48.15376 | 15.85113 | 21011 ft | 424 kts | 291° |
| 2026-05-06 12:52 | 48.16667 | 15.81114 | 21746 ft | 427 kts | 291° |
| 2026-05-06 12:53 | 48.17960 | 15.77096 | 22459 ft | 431 kts | 291° |
| 2026-05-06 12:53 | 48.19268 | 15.73025 | 23160 ft | 434 kts | 291° |
| 2026-05-06 12:53 | 48.20583 | 15.68917 | 23759 ft | 438 kts | 291° |
| 2026-05-06 12:53 | 48.21901 | 15.64787 | 24347 ft | 440 kts | 291° |
| 2026-05-06 12:54 | 48.23213 | 15.60668 | 24910 ft | 443 kts | 291° |
| 2026-05-06 12:54 | 48.24546 | 15.56468 | 25518 ft | 445 kts | 290° |
| 2026-05-06 12:54 | 48.25883 | 15.52247 | 26006 ft | 449 kts | 290° |
| 2026-05-06 12:54 | 48.27228 | 15.47984 | 26553 ft | 452 kts | 290° |
| 2026-05-06 12:55 | 48.28529 | 15.43734 | 27066 ft | 453 kts | 287° |
| 2026-05-06 12:55 | 48.29527 | 15.39255 | 27583 ft | 451 kts | 279° |
| 2026-05-06 12:55 | 48.30243 | 15.34649 | 28095 ft | 452 kts | 278° |
| 2026-05-06 12:55 | 48.30956 | 15.30035 | 28585 ft | 455 kts | 279° |
| 2026-05-06 12:56 | 48.31761 | 15.25410 | 29235 ft | 455 kts | 281° |
| 2026-05-06 12:56 | 48.32580 | 15.20895 | 29962 ft | 452 kts | 280° |
| 2026-05-06 12:56 | 48.33372 | 15.16357 | 30777 ft | 443 kts | 279° |
| 2026-05-06 12:56 | 48.34111 | 15.11900 | 31570 ft | 436 kts | 278° |
| 2026-05-06 12:57 | 48.34824 | 15.07430 | 31882 ft | 442 kts | 278° |
| 2026-05-06 12:57 | 48.36249 | 14.98412 | 31916 ft | 441 kts | 278° |
| 2026-05-06 12:58 | 48.37669 | 14.89513 | 31930 ft | 440 kts | 278° |
| 2026-05-06 12:58 | 48.39081 | 14.80558 | 31934 ft | 440 kts | 278° |
| 2026-05-06 12:59 | 48.40485 | 14.71606 | 31941 ft | 439 kts | 277° |
| 2026-05-06 12:59 | 48.41876 | 14.62660 | 31937 ft | 439 kts | 277° |
| 2026-05-06 13:00 | 48.43266 | 14.53699 | 31926 ft | 439 kts | 277° |
| 2026-05-06 13:00 | 48.44647 | 14.44743 | 31923 ft | 438 kts | 277° |
| 2026-05-06 13:01 | 48.46011 | 14.35848 | 31942 ft | 438 kts | 277° |
| 2026-05-06 13:01 | 48.47379 | 14.26887 | 31917 ft | 439 kts | 276° |
| 2026-05-06 13:02 | 48.48737 | 14.17898 | 31913 ft | 439 kts | 276° |
| 2026-05-06 13:02 | 48.50095 | 14.08894 | 31919 ft | 439 kts | 276° |
| 2026-05-06 13:03 | 48.51448 | 13.99910 | 31932 ft | 439 kts | 276° |
| 2026-05-06 13:03 | 48.52782 | 13.90975 | 31936 ft | 440 kts | 276° |
| 2026-05-06 13:04 | 48.54124 | 13.81922 | 31926 ft | 442 kts | 276° |
| 2026-05-06 13:04 | 48.55458 | 13.72850 | 31923 ft | 442 kts | 276° |
| 2026-05-06 13:05 | 48.56782 | 13.63831 | 31923 ft | 442 kts | 276° |
| 2026-05-06 13:05 | 48.58116 | 13.54735 | 31952 ft | 442 kts | 276° |
| 2026-05-06 13:06 | 48.59888 | 13.45811 | 31933 ft | 449 kts | 283° |
| 2026-05-06 13:06 | 48.61958 | 13.36911 | 31922 ft | 448 kts | 282° |
| 2026-05-06 13:07 | 48.63999 | 13.28007 | 31927 ft | 449 kts | 282° |
| 2026-05-06 13:07 | 48.66103 | 13.19168 | 31920 ft | 449 kts | 283° |
| 2026-05-06 13:08 | 48.68235 | 13.10257 | 31931 ft | 449 kts | 283° |
| 2026-05-06 13:08 | 48.70337 | 13.01346 | 31930 ft | 449 kts | 282° |
| 2026-05-06 13:09 | 48.72411 | 12.92426 | 31933 ft | 449 kts | 282° |
| 2026-05-06 13:09 | 48.74492 | 12.83557 | 31929 ft | 449 kts | 282° |
| 2026-05-06 13:10 | 48.76599 | 12.74570 | 31931 ft | 449 kts | 282° |
| 2026-05-06 13:10 | 48.78756 | 12.65738 | 31927 ft | 452 kts | 286° |
| 2026-05-06 13:11 | 48.81404 | 12.57035 | 31927 ft | 454 kts | 288° |
| 2026-05-06 13:11 | 48.84034 | 12.48300 | 31930 ft | 454 kts | 287° |
| 2026-05-06 13:12 | 48.86659 | 12.39566 | 31935 ft | 454 kts | 288° |
| 2026-05-06 13:12 | 48.89301 | 12.30888 | 31946 ft | 455 kts | 288° |
| 2026-05-06 13:13 | 48.91964 | 12.22102 | 31931 ft | 457 kts | 288° |
| 2026-05-06 13:13 | 48.94629 | 12.13312 | 31933 ft | 457 kts | 288° |
| 2026-05-06 13:14 | 48.97268 | 12.04567 | 31932 ft | 457 kts | 288° |
| 2026-05-06 13:14 | 48.99914 | 11.95758 | 31933 ft | 457 kts | 288° |
| 2026-05-06 13:15 | 49.02565 | 11.86912 | 31934 ft | 458 kts | 288° |
| 2026-05-06 13:15 | 49.05206 | 11.78050 | 31932 ft | 459 kts | 288° |
| 2026-05-06 13:16 | 49.07826 | 11.69226 | 31929 ft | 459 kts | 288° |
| 2026-05-06 13:16 | 49.10455 | 11.60347 | 31928 ft | 459 kts | 288° |
| 2026-05-06 13:17 | 49.13082 | 11.51445 | 31943 ft | 460 kts | 288° |
| 2026-05-06 13:17 | 49.15709 | 11.42511 | 31932 ft | 462 kts | 288° |
| 2026-05-06 13:18 | 49.18324 | 11.33593 | 31925 ft | 462 kts | 288° |
| 2026-05-06 13:18 | 49.20945 | 11.24611 | 31935 ft | 462 kts | 288° |
| 2026-05-06 13:19 | 49.23433 | 11.15536 | 31932 ft | 461 kts | 285° |
| 2026-05-06 13:19 | 49.25800 | 11.06457 | 31943 ft | 463 kts | 286° |
| 2026-05-06 13:20 | 49.28272 | 10.97318 | 31949 ft | 465 kts | 287° |
| 2026-05-06 13:20 | 49.30768 | 10.88155 | 31953 ft | 465 kts | 287° |
| 2026-05-06 13:21 | 49.33274 | 10.78992 | 31938 ft | 467 kts | 290° |
| 2026-05-06 13:21 | 49.36841 | 10.70596 | 31971 ft | 476 kts | 300° |
| 2026-05-06 13:22 | 49.40656 | 10.62250 | 31952 ft | 477 kts | 298° |
| 2026-05-06 13:22 | 49.44422 | 10.53832 | 31932 ft | 478 kts | 300° |
| 2026-05-06 13:23 | 49.48301 | 10.45518 | 31930 ft | 478 kts | 300° |
| 2026-05-06 13:23 | 49.52186 | 10.37204 | 31929 ft | 479 kts | 300° |
| 2026-05-06 13:24 | 49.56050 | 10.28890 | 31946 ft | 481 kts | 300° |
| 2026-05-06 13:24 | 49.59969 | 10.20495 | 31944 ft | 483 kts | 300° |
| 2026-05-06 13:25 | 49.63892 | 10.12071 | 31938 ft | 482 kts | 300° |
| 2026-05-06 13:25 | 49.67764 | 10.03693 | 31937 ft | 482 kts | 300° |
| 2026-05-06 13:26 | 49.71508 | 9.95115 | 31944 ft | 477 kts | 293° |
| 2026-05-06 13:26 | 49.74296 | 9.85845 | 31931 ft | 475 kts | 289° |
| 2026-05-06 13:27 | 49.77078 | 9.76547 | 31926 ft | 477 kts | 291° |
| 2026-05-06 13:27 | 49.79895 | 9.67315 | 31923 ft | 477 kts | 290° |
| 2026-05-06 13:28 | 49.82617 | 9.57957 | 31920 ft | 476 kts | 288° |
| 2026-05-06 13:28 | 49.85083 | 9.48437 | 31934 ft | 475 kts | 287° |
| 2026-05-06 13:29 | 49.87557 | 9.38929 | 31914 ft | 475 kts | 288° |
| 2026-05-06 13:29 | 49.90055 | 9.29427 | 31911 ft | 475 kts | 288° |
| 2026-05-06 13:30 | 49.92510 | 9.19969 | 31931 ft | 475 kts | 288° |
| 2026-05-06 13:30 | 49.94968 | 9.10441 | 31932 ft | 475 kts | 288° |
| 2026-05-06 13:31 | 49.97427 | 9.00906 | 31922 ft | 475 kts | 288° |
| 2026-05-06 13:31 | 49.99887 | 8.91346 | 31917 ft | 476 kts | 288° |
| 2026-05-06 13:32 | 50.02333 | 8.81798 | 31925 ft | 475 kts | 288° |
| 2026-05-06 13:32 | 50.04745 | 8.72278 | 31928 ft | 475 kts | 287° |
| 2026-05-06 13:33 | 50.07171 | 8.62681 | 31927 ft | 475 kts | 288° |
| 2026-05-06 13:33 | 50.09596 | 8.53092 | 31928 ft | 475 kts | 287° |
| 2026-05-06 13:34 | 50.12003 | 8.43507 | 31940 ft | 475 kts | 287° |
| 2026-05-06 13:34 | 50.14391 | 8.33982 | 31936 ft | 474 kts | 287° |
| 2026-05-06 13:35 | 50.16771 | 8.24401 | 31952 ft | 473 kts | 287° |
| 2026-05-06 13:35 | 50.19140 | 8.14826 | 31944 ft | 472 kts | 287° |
| 2026-05-06 13:36 | 50.21487 | 8.05308 | 31941 ft | 472 kts | 287° |
| 2026-05-06 13:36 | 50.23839 | 7.95717 | 31938 ft | 473 kts | 287° |
| 2026-05-06 13:37 | 50.26197 | 7.86108 | 31953 ft | 473 kts | 287° |
| 2026-05-06 13:37 | 50.28540 | 7.76512 | 31954 ft | 472 kts | 288° |
| 2026-05-06 13:38 | 50.30477 | 7.68531 | 31958 ft | 471 kts | 287° |
| 2026-05-06 13:38 | 50.33171 | 7.57373 | 31962 ft | 471 kts | 287° |
| 2026-05-06 13:39 | 50.35476 | 7.47781 | 31956 ft | 471 kts | 287° |
| 2026-05-06 13:39 | 50.37396 | 7.39784 | 31973 ft | 471 kts | 287° |
| 2026-05-06 13:40 | 50.40068 | 7.28515 | 31960 ft | 473 kts | 288° |
| 2026-05-06 13:40 | 50.41990 | 7.20475 | 31963 ft | 473 kts | 288° |
| 2026-05-06 13:41 | 50.44282 | 7.10785 | 31966 ft | 474 kts | 288° |
| 2026-05-06 13:41 | 50.46576 | 7.01047 | 31962 ft | 476 kts | 288° |
| 2026-05-06 13:42 | 50.48853 | 6.91348 | 31958 ft | 476 kts | 288° |
| 2026-05-06 13:42 | 50.51204 | 6.81613 | 31967 ft | 477 kts | 291° |
| 2026-05-06 13:43 | 50.53674 | 6.71945 | 31970 ft | 476 kts | 288° |
| 2026-05-06 13:43 | 50.55985 | 6.62164 | 31965 ft | 477 kts | 290° |
| 2026-05-06 13:44 | 50.58453 | 6.52540 | 31961 ft | 477 kts | 291° |
| 2026-05-06 13:44 | 50.60986 | 6.42867 | 31976 ft | 479 kts | 291° |
| 2026-05-06 13:45 | 50.63522 | 6.33136 | 31981 ft | 479 kts | 291° |
| 2026-05-06 13:45 | 50.67311 | 6.18548 | 31986 ft | 479 kts | 290° |
| 2026-05-06 13:46 | 50.69810 | 6.08866 | 32002 ft | 479 kts | 290° |
| 2026-05-06 13:46 | 50.72312 | 5.99103 | 32017 ft | 480 kts | 290° |
| 2026-05-06 13:47 | 50.74814 | 5.89329 | 32028 ft | 480 kts | 290° |
| 2026-05-06 13:47 | 50.77312 | 5.79550 | 32033 ft | 480 kts | 290° |
| 2026-05-06 13:48 | 50.79799 | 5.69767 | 32034 ft | 480 kts | 290° |
| 2026-05-06 13:48 | 50.82284 | 5.59969 | 32031 ft | 480 kts | 290° |
| 2026-05-06 13:49 | 50.84738 | 5.50214 | 32028 ft | 479 kts | 290° |
| 2026-05-06 13:49 | 50.87193 | 5.40412 | 32027 ft | 479 kts | 290° |
| 2026-05-06 13:50 | 50.89642 | 5.30587 | 32022 ft | 479 kts | 290° |
| 2026-05-06 13:50 | 50.92078 | 5.20764 | 32025 ft | 479 kts | 290° |
| 2026-05-06 13:51 | 50.94511 | 5.10940 | 32028 ft | 479 kts | 290° |
| 2026-05-06 13:51 | 50.96929 | 5.01115 | 32023 ft | 480 kts | 290° |
| 2026-05-06 13:52 | 50.99350 | 4.91255 | 32025 ft | 480 kts | 290° |
| 2026-05-06 13:52 | 51.01761 | 4.81379 | 32030 ft | 479 kts | 290° |
| 2026-05-06 13:53 | 51.04159 | 4.71485 | 32041 ft | 479 kts | 290° |
| 2026-05-06 13:53 | 51.06562 | 4.61592 | 32036 ft | 479 kts | 289° |
| 2026-05-06 13:54 | 51.08930 | 4.51737 | 32037 ft | 480 kts | 289° |
| 2026-05-06 13:54 | 51.11310 | 4.41806 | 32038 ft | 479 kts | 289° |
| 2026-05-06 13:55 | 51.13687 | 4.31866 | 32036 ft | 479 kts | 289° |
| 2026-05-06 13:55 | 51.16033 | 4.21922 | 32034 ft | 479 kts | 287° |
| 2026-05-06 13:56 | 51.17613 | 4.11706 | 32044 ft | 477 kts | 279° |
| 2026-05-06 13:56 | 51.18861 | 4.01305 | 32037 ft | 477 kts | 281° |
| 2026-05-06 13:57 | 51.20279 | 3.90928 | 32041 ft | 478 kts | 281° |
| 2026-05-06 13:57 | 51.21685 | 3.80632 | 32045 ft | 478 kts | 281° |
| 2026-05-06 13:58 | 51.23090 | 3.70283 | 32052 ft | 476 kts | 281° |
| 2026-05-06 13:58 | 51.24450 | 3.59924 | 32060 ft | 476 kts | 280° |
| 2026-05-06 13:59 | 51.25799 | 3.49582 | 32057 ft | 476 kts | 281° |
| 2026-05-06 13:59 | 51.27178 | 3.39242 | 32070 ft | 476 kts | 281° |
| 2026-05-06 14:00 | 51.28511 | 3.28879 | 32078 ft | 475 kts | 280° |
| 2026-05-06 14:00 | 51.29820 | 3.18588 | 32091 ft | 471 kts | 280° |
| 2026-05-06 14:01 | 51.31128 | 3.08392 | 32086 ft | 471 kts | 280° |
| 2026-05-06 14:01 | 51.32431 | 2.98108 | 32088 ft | 470 kts | 280° |
| 2026-05-06 14:02 | 51.33730 | 2.87857 | 32083 ft | 470 kts | 280° |
| 2026-05-06 14:02 | 51.35012 | 2.77653 | 32094 ft | 470 kts | 280° |
| 2026-05-06 14:03 | 51.36276 | 2.67382 | 32087 ft | 467 kts | 279° |
| 2026-05-06 14:03 | 51.37497 | 2.57207 | 32088 ft | 468 kts | 280° |
| 2026-05-06 14:04 | 51.38750 | 2.46957 | 32093 ft | 469 kts | 279° |
| 2026-05-06 14:04 | 51.40001 | 2.36702 | 32095 ft | 468 kts | 280° |
| 2026-05-06 14:05 | 51.41225 | 2.26450 | 32101 ft | 468 kts | 280° |
| 2026-05-06 14:05 | 51.42453 | 2.16263 | 32104 ft | 468 kts | 279° |
| 2026-05-06 14:06 | 51.43694 | 2.06039 | 32104 ft | 467 kts | 280° |
| 2026-05-06 14:06 | 51.44937 | 1.95807 | 32105 ft | 468 kts | 279° |
| 2026-05-06 14:07 | 51.46125 | 1.85525 | 32104 ft | 467 kts | 279° |
| 2026-05-06 14:07 | 51.47299 | 1.75341 | 32105 ft | 467 kts | 279° |
| 2026-05-06 14:08 | 51.48487 | 1.65073 | 32108 ft | 467 kts | 279° |
| 2026-05-06 14:08 | 51.49655 | 1.54782 | 32107 ft | 467 kts | 279° |
| 2026-05-06 14:09 | 51.50818 | 1.44571 | 32108 ft | 467 kts | 279° |
| 2026-05-06 14:09 | 51.51990 | 1.34290 | 32115 ft | 467 kts | 279° |
| 2026-05-06 14:10 | 51.53131 | 1.24066 | 32113 ft | 467 kts | 279° |
| 2026-05-06 14:10 | 51.54307 | 1.13799 | 32114 ft | 467 kts | 279° |
| 2026-05-06 14:11 | 51.55161 | 1.03437 | 32117 ft | 467 kts | 275° |
| 2026-05-06 14:11 | 51.55811 | 0.93124 | 32123 ft | 466 kts | 276° |
| 2026-05-06 14:12 | 51.56510 | 0.82752 | 32116 ft | 466 kts | 276° |
| 2026-05-06 14:12 | 51.57192 | 0.72409 | 32120 ft | 464 kts | 275° |
| 2026-05-06 14:13 | 51.57857 | 0.62122 | 32122 ft | 465 kts | 275° |
| 2026-05-06 14:13 | 51.58520 | 0.51768 | 32119 ft | 464 kts | 275° |
| 2026-05-06 14:14 | 51.59171 | 0.41433 | 32122 ft | 464 kts | 275° |
| 2026-05-06 14:14 | 51.59811 | 0.31144 | 32132 ft | 464 kts | 275° |
| 2026-05-06 14:15 | 51.60444 | 0.20821 | 32145 ft | 463 kts | 275° |
| 2026-05-06 14:15 | 51.61068 | 0.10474 | 32149 ft | 464 kts | 275° |
| 2026-05-06 14:16 | 51.61678 | 0.00206 | 32148 ft | 463 kts | 275° |
| 2026-05-06 14:16 | 51.62281 | -0.10126 | 32190 ft | 463 kts | 275° |
| 2026-05-06 14:17 | 51.62765 | -0.20482 | 32201 ft | 463 kts | 272° |
| 2026-05-06 14:17 | 51.63033 | -0.30785 | 32200 ft | 463 kts | 273° |
| 2026-05-06 14:18 | 51.63578 | -0.41139 | 32147 ft | 463 kts | 275° |
| 2026-05-06 14:18 | 51.64194 | -0.51471 | 32147 ft | 463 kts | 275° |
| 2026-05-06 14:19 | 51.64806 | -0.61799 | 32145 ft | 463 kts | 275° |
| 2026-05-06 14:19 | 51.65413 | -0.72078 | 32143 ft | 463 kts | 275° |
| 2026-05-06 14:20 | 51.65994 | -0.82406 | 32143 ft | 463 kts | 275° |
| 2026-05-06 14:20 | 51.66573 | -0.92750 | 32142 ft | 463 kts | 275° |
| 2026-05-06 14:21 | 51.67164 | -1.03112 | 32148 ft | 463 kts | 275° |
| 2026-05-06 14:21 | 51.67750 | -1.13376 | 32143 ft | 462 kts | 275° |
| 2026-05-06 14:22 | 51.68303 | -1.23709 | 32147 ft | 462 kts | 274° |
| 2026-05-06 14:22 | 51.68854 | -1.34054 | 32145 ft | 462 kts | 274° |
| 2026-05-06 14:23 | 51.69385 | -1.44382 | 32145 ft | 462 kts | 274° |
| 2026-05-06 14:23 | 51.69953 | -1.54632 | 32148 ft | 461 kts | 274° |
| 2026-05-06 14:24 | 51.70477 | -1.64943 | 32147 ft | 461 kts | 274° |
| 2026-05-06 14:24 | 51.71049 | -1.75251 | 32162 ft | 461 kts | 275° |
| 2026-05-06 14:25 | 51.71596 | -1.83803 | 32160 ft | 461 kts | 276° |
| 2026-05-06 14:25 | 51.72460 | -1.95775 | 32169 ft | 461 kts | 276° |
| 2026-05-06 14:26 | 51.73050 | -2.04379 | 32170 ft | 460 kts | 276° |
| 2026-05-06 14:26 | 51.73756 | -2.14572 | 32173 ft | 459 kts | 276° |
| 2026-05-06 14:27 | 51.74474 | -2.24830 | 32167 ft | 460 kts | 276° |
| 2026-05-06 14:27 | 51.75192 | -2.35109 | 32168 ft | 459 kts | 276° |
| 2026-05-06 14:28 | 51.75901 | -2.45305 | 32166 ft | 459 kts | 275° |
| 2026-05-06 14:28 | 51.76569 | -2.55553 | 32154 ft | 459 kts | 275° |
| 2026-05-06 14:29 | 51.77234 | -2.65804 | 32150 ft | 458 kts | 275° |
| 2026-05-06 14:29 | 51.77923 | -2.76029 | 32161 ft | 458 kts | 276° |
| 2026-05-06 14:30 | 51.78605 | -2.86247 | 32199 ft | 457 kts | 275° |
| 2026-05-06 14:30 | 51.79238 | -2.96450 | 32200 ft | 456 kts | 275° |
| 2026-05-06 14:31 | 51.79871 | -3.06597 | 32199 ft | 456 kts | 275° |
| 2026-05-06 14:31 | 51.80521 | -3.16816 | 32187 ft | 456 kts | 275° |
| 2026-05-06 14:32 | 51.81148 | -3.27020 | 32176 ft | 456 kts | 275° |
| 2026-05-06 14:32 | 51.81724 | -3.37177 | 32162 ft | 456 kts | 274° |
| 2026-05-06 14:33 | 51.82223 | -3.47389 | 32150 ft | 456 kts | 274° |
| 2026-05-06 14:33 | 51.83113 | -3.57539 | 32158 ft | 455 kts | 282° |
| 2026-05-06 14:34 | 51.84463 | -3.67567 | 32148 ft | 456 kts | 281° |
| 2026-05-06 14:34 | 51.85673 | -3.77564 | 32155 ft | 456 kts | 281° |
| 2026-05-06 14:35 | 51.86959 | -3.87617 | 32155 ft | 456 kts | 281° |
| 2026-05-06 14:35 | 51.88256 | -3.97666 | 32152 ft | 455 kts | 281° |
| 2026-05-06 14:36 | 51.89517 | -4.07718 | 32151 ft | 455 kts | 281° |
| 2026-05-06 14:36 | 51.90787 | -4.17761 | 32155 ft | 455 kts | 281° |
| 2026-05-06 14:37 | 51.92051 | -4.27755 | 32155 ft | 455 kts | 281° |
| 2026-05-06 14:37 | 51.93298 | -4.37796 | 32156 ft | 455 kts | 281° |
| 2026-05-06 14:38 | 51.94543 | -4.47849 | 32151 ft | 454 kts | 281° |
| 2026-05-06 14:38 | 51.95780 | -4.57904 | 32175 ft | 454 kts | 281° |
| 2026-05-06 14:39 | 51.97017 | -4.67937 | 32154 ft | 453 kts | 281° |
| 2026-05-06 14:39 | 51.98221 | -4.77960 | 32155 ft | 452 kts | 281° |
| 2026-05-06 14:40 | 51.99419 | -4.87935 | 32171 ft | 452 kts | 281° |
| 2026-05-06 14:40 | 52.00607 | -4.97968 | 32174 ft | 452 kts | 281° |
| 2026-05-06 14:41 | 52.01803 | -5.08007 | 32159 ft | 453 kts | 281° |
| 2026-05-06 14:41 | 52.03035 | -5.18023 | 32161 ft | 453 kts | 284° |
| 2026-05-06 14:42 | 52.04879 | -5.27739 | 32176 ft | 453 kts | 287° |
| 2026-05-06 14:42 | 52.06744 | -5.37547 | 32179 ft | 453 kts | 286° |
| 2026-05-06 14:43 | 52.08626 | -5.47334 | 32163 ft | 453 kts | 287° |
| 2026-05-06 14:43 | 52.10573 | -5.57024 | 32181 ft | 453 kts | 288° |
| 2026-05-06 14:44 | 52.12511 | -5.66797 | 32182 ft | 453 kts | 287° |
| 2026-05-06 14:45 | 52.15386 | -5.81473 | 32169 ft | 454 kts | 285° |
| 2026-05-06 14:45 | 52.16631 | -5.91520 | 32158 ft | 456 kts | 279° |
| 2026-05-06 14:46 | 52.17708 | -6.01741 | 32170 ft | 459 kts | 281° |
| 2026-05-06 14:46 | 52.18867 | -6.11994 | 32164 ft | 460 kts | 281° |
| 2026-05-06 14:47 | 52.19987 | -6.22227 | 32166 ft | 460 kts | 280° |
| 2026-05-06 14:47 | 52.21082 | -6.32523 | 32181 ft | 460 kts | 280° |
| 2026-05-06 14:48 | 52.22162 | -6.42745 | 32153 ft | 460 kts | 280° |
| 2026-05-06 14:48 | 52.23228 | -6.53062 | 32171 ft | 462 kts | 280° |
| 2026-05-06 14:49 | 52.24304 | -6.63401 | 32163 ft | 462 kts | 281° |
| 2026-05-06 14:49 | 52.25378 | -6.73756 | 32174 ft | 462 kts | 280° |
| 2026-05-06 14:50 | 52.26437 | -6.84114 | 32179 ft | 462 kts | 280° |
| 2026-05-06 14:50 | 52.27479 | -6.94492 | 32166 ft | 463 kts | 280° |
| 2026-05-06 14:51 | 52.28517 | -7.04827 | 32174 ft | 465 kts | 280° |
| 2026-05-06 14:51 | 52.29547 | -7.15277 | 32176 ft | 465 kts | 280° |
| 2026-05-06 14:52 | 52.30596 | -7.25730 | 32176 ft | 466 kts | 281° |
| 2026-05-06 14:52 | 52.31594 | -7.36148 | 32173 ft | 467 kts | 280° |
| 2026-05-06 14:53 | 52.32586 | -7.46661 | 32162 ft | 467 kts | 281° |
| 2026-05-06 14:53 | 52.33583 | -7.57192 | 32151 ft | 469 kts | 281° |
| 2026-05-06 14:54 | 52.34581 | -7.67693 | 32147 ft | 470 kts | 281° |
| 2026-05-06 14:54 | 52.35590 | -7.78295 | 32156 ft | 470 kts | 281° |
| 2026-05-06 14:55 | 52.36550 | -7.88814 | 32157 ft | 470 kts | 280° |
| 2026-05-06 14:55 | 52.37505 | -7.99413 | 32148 ft | 470 kts | 281° |
| 2026-05-06 14:56 | 52.38486 | -8.10017 | 32149 ft | 472 kts | 280° |
| 2026-05-06 14:56 | 52.39425 | -8.20683 | 32155 ft | 472 kts | 280° |
| 2026-05-06 14:57 | 52.40164 | -8.31313 | 32153 ft | 473 kts | 276° |
| 2026-05-06 14:57 | 52.40475 | -8.42103 | 32153 ft | 474 kts | 275° |
| 2026-05-06 14:58 | 52.40870 | -8.52888 | 32151 ft | 474 kts | 276° |
| 2026-05-06 14:58 | 52.41336 | -8.63701 | 32151 ft | 476 kts | 276° |
| 2026-05-06 14:59 | 52.41762 | -8.74449 | 32150 ft | 476 kts | 276° |
| 2026-05-06 14:59 | 52.42206 | -8.85292 | 32154 ft | 476 kts | 276° |
| 2026-05-06 15:00 | 52.42637 | -8.96125 | 32152 ft | 476 kts | 276° |
| 2026-05-06 15:00 | 52.43058 | -9.06967 | 32153 ft | 477 kts | 276° |
| 2026-05-06 15:01 | 52.43453 | -9.17777 | 32154 ft | 478 kts | 276° |
| 2026-05-06 15:01 | 52.43857 | -9.28680 | 32158 ft | 478 kts | 276° |
| 2026-05-06 15:02 | 52.44254 | -9.39551 | 32166 ft | 478 kts | 276° |
| 2026-05-06 15:02 | 52.44632 | -9.50448 | 32157 ft | 478 kts | 276° |
| 2026-05-06 15:03 | 52.44987 | -9.61278 | 32168 ft | 479 kts | 276° |
| 2026-05-06 15:03 | 52.45353 | -9.72187 | 32170 ft | 479 kts | 276° |
| 2026-05-06 15:04 | 52.45711 | -9.83094 | 32173 ft | 479 kts | 275° |
| 2026-05-06 15:04 | 52.46062 | -9.94007 | 32168 ft | 479 kts | 275° |
| 2026-05-06 15:05 | 52.46391 | -10.04942 | 32168 ft | 480 kts | 275° |
| 2026-05-06 15:05 | 52.46701 | -10.15883 | 32170 ft | 481 kts | 275° |
| 2026-05-06 15:06 | 52.47005 | -10.26783 | 32247 ft | 480 kts | 275° |
| 2026-05-06 15:06 | 52.47149 | -10.32255 | 32411 ft | 480 kts | 275° |
| 2026-05-06 15:06 | 52.47293 | -10.37728 | 32531 ft | 480 kts | 275° |
| 2026-05-06 15:06 | 52.47446 | -10.43222 | 32670 ft | 480 kts | 275° |
| 2026-05-06 15:07 | 52.47603 | -10.48689 | 32801 ft | 480 kts | 276° |
| 2026-05-06 15:07 | 52.47759 | -10.54095 | 32938 ft | 480 kts | 276° |
| 2026-05-06 15:07 | 52.47911 | -10.59585 | 33072 ft | 480 kts | 275° |
| 2026-05-06 15:07 | 52.48049 | -10.65053 | 33205 ft | 480 kts | 275° |
| 2026-05-06 15:08 | 52.48178 | -10.70544 | 33348 ft | 479 kts | 275° |
| 2026-05-06 15:08 | 52.48314 | -10.76009 | 33486 ft | 479 kts | 276° |
| 2026-05-06 15:08 | 52.48452 | -10.81412 | 33623 ft | 479 kts | 276° |
| 2026-05-06 15:08 | 52.48579 | -10.86889 | 33754 ft | 479 kts | 275° |
| 2026-05-06 15:09 | 52.48702 | -10.92350 | 33906 ft | 479 kts | 275° |
| 2026-05-06 15:09 | 52.48824 | -10.97809 | 34054 ft | 478 kts | 276° |
| 2026-05-06 15:09 | 52.48953 | -11.03292 | 34136 ft | 479 kts | 276° |
| 2026-05-06 15:10 | 52.49183 | -11.14214 | 34168 ft | 478 kts | 275° |
| 2026-05-06 15:10 | 52.49385 | -11.25042 | 34179 ft | 477 kts | 275° |
| 2026-05-06 15:11 | 52.49606 | -11.35937 | 34181 ft | 477 kts | 275° |
| 2026-05-06 15:11 | 52.49793 | -11.46811 | 34179 ft | 477 kts | 275° |
| 2026-05-06 15:12 | 52.49981 | -11.57624 | 34174 ft | 476 kts | 275° |
| 2026-05-06 15:12 | 52.50163 | -11.68512 | 34178 ft | 476 kts | 275° |
| 2026-05-06 15:13 | 52.50344 | -11.79391 | 34178 ft | 476 kts | 275° |
| 2026-05-06 15:13 | 52.50505 | -11.90277 | 34182 ft | 476 kts | 275° |
| 2026-05-06 15:14 | 52.50661 | -12.01082 | 34181 ft | 476 kts | 275° |
| 2026-05-06 15:14 | 52.50847 | -12.11952 | 34177 ft | 476 kts | 275° |
| 2026-05-06 15:15 | 52.50938 | -12.21016 | 34180 ft | 477 kts | 274° |
| 2026-05-06 15:15 | 52.51024 | -12.31933 | 34180 ft | 477 kts | 274° |
| 2026-05-06 15:16 | 52.51132 | -12.42754 | 34182 ft | 476 kts | 275° |
| 2026-05-06 15:16 | 52.51266 | -12.53646 | 34184 ft | 476 kts | 274° |
| 2026-05-06 15:17 | 52.51343 | -12.64547 | 34175 ft | 476 kts | 274° |
| 2026-05-06 15:17 | 52.51434 | -12.75363 | 34181 ft | 476 kts | 274° |
| 2026-05-06 15:18 | 52.51486 | -12.86244 | 34186 ft | 476 kts | 274° |
| 2026-05-06 15:18 | 52.51542 | -12.97130 | 34183 ft | 476 kts | 274° |
| 2026-05-06 15:19 | 52.51629 | -13.08024 | 34172 ft | 476 kts | 274° |
| 2026-05-06 15:19 | 52.51683 | -13.18830 | 34180 ft | 476 kts | 273° |
| 2026-05-06 15:20 | 52.51689 | -13.29676 | 34180 ft | 474 kts | 273° |
| 2026-05-06 15:20 | 52.51704 | -13.40493 | 34182 ft | 473 kts | 273° |
| 2026-05-06 15:21 | 52.51737 | -13.51313 | 34184 ft | 473 kts | 273° |
| 2026-05-06 15:21 | 52.51752 | -13.62073 | 34182 ft | 473 kts | 272° |
| 2026-05-06 15:22 | 52.51735 | -13.72908 | 34182 ft | 473 kts | 273° |
| 2026-05-06 15:22 | 52.51724 | -13.83718 | 34172 ft | 473 kts | 272° |
| 2026-05-06 15:23 | 52.51678 | -13.94540 | 34183 ft | 473 kts | 272° |
| 2026-05-06 15:23 | 52.51657 | -14.05293 | 34177 ft | 473 kts | 272° |
| 2026-05-06 15:24 | 52.51618 | -14.16102 | 34170 ft | 473 kts | 272° |
| 2026-05-06 15:24 | 52.51541 | -14.26934 | 34183 ft | 473 kts | 272° |
| 2026-05-06 15:25 | 52.51474 | -14.37697 | 34184 ft | 473 kts | 272° |
| 2026-05-06 15:25 | 52.51428 | -14.48530 | 34182 ft | 473 kts | 272° |
| 2026-05-06 15:26 | 52.51334 | -14.59342 | 34174 ft | 473 kts | 271° |
| 2026-05-06 15:26 | 52.51234 | -14.70158 | 34180 ft | 473 kts | 271° |
| 2026-05-06 15:27 | 52.51119 | -14.80887 | 34172 ft | 472 kts | 271° |
| 2026-05-06 15:27 | 52.51008 | -14.91685 | 34173 ft | 473 kts | 271° |
| 2026-05-06 15:28 | 52.51028 | -15.02451 | 34187 ft | 469 kts | 278° |
| 2026-05-06 15:28 | 52.51485 | -15.07746 | 34288 ft | 466 kts | 282° |
| 2026-05-06 15:28 | 52.52030 | -15.13014 | 34407 ft | 468 kts | 282° |
| 2026-05-06 15:28 | 52.52546 | -15.18289 | 34522 ft | 468 kts | 281° |
| 2026-05-06 15:29 | 52.53060 | -15.23501 | 34647 ft | 467 kts | 282° |
| 2026-05-06 15:29 | 52.53617 | -15.28754 | 34763 ft | 466 kts | 282° |
| 2026-05-06 15:29 | 52.54211 | -15.33989 | 34884 ft | 466 kts | 283° |
| 2026-05-06 15:29 | 52.54835 | -15.39207 | 35026 ft | 465 kts | 283° |
| 2026-05-06 15:30 | 52.55458 | -15.44423 | 35140 ft | 466 kts | 283° |
| 2026-05-06 15:30 | 52.56689 | -15.54855 | 35172 ft | 465 kts | 283° |
| 2026-05-06 15:31 | 52.57929 | -15.65312 | 35175 ft | 464 kts | 283° |
| 2026-05-06 15:31 | 52.59177 | -15.75737 | 35171 ft | 464 kts | 283° |
| 2026-05-06 15:32 | 52.60962 | -15.91352 | 35176 ft | 465 kts | 283° |
| 2026-05-06 15:32 | 52.62175 | -16.01838 | 35178 ft | 465 kts | 282° |
| 2026-05-06 15:33 | 52.63339 | -16.12236 | 35182 ft | 464 kts | 282° |
| 2026-05-06 15:33 | 52.64510 | -16.22687 | 35156 ft | 464 kts | 282° |
| 2026-05-06 15:34 | 52.65663 | -16.33128 | 35172 ft | 462 kts | 282° |
| 2026-05-06 15:34 | 52.66865 | -16.43534 | 35178 ft | 462 kts | 282° |
| 2026-05-06 15:35 | 52.67993 | -16.53963 | 35167 ft | 462 kts | 281° |
| 2026-05-06 15:35 | 52.69100 | -16.64407 | 35174 ft | 462 kts | 281° |
| 2026-05-06 15:36 | 52.70264 | -16.74840 | 35173 ft | 462 kts | 282° |
| 2026-05-06 15:36 | 52.71403 | -16.85279 | 35171 ft | 463 kts | 281° |
| 2026-05-06 15:37 | 52.72485 | -16.95677 | 35169 ft | 463 kts | 281° |
| 2026-05-06 15:37 | 52.73607 | -17.06142 | 35167 ft | 463 kts | 281° |
| 2026-05-06 15:38 | 52.74733 | -17.16628 | 35170 ft | 463 kts | 281° |
| 2026-05-06 15:38 | 52.75789 | -17.27112 | 35163 ft | 461 kts | 280° |
| 2026-05-06 15:39 | 52.76830 | -17.37551 | 35160 ft | 460 kts | 280° |
| 2026-05-06 15:39 | 52.77897 | -17.47921 | 35155 ft | 461 kts | 279° |
| 2026-05-06 15:40 | 52.78946 | -17.58370 | 35169 ft | 461 kts | 280° |
| 2026-05-06 15:40 | 52.80017 | -17.68813 | 35164 ft | 461 kts | 279° |
| 2026-05-06 15:41 | 52.81046 | -17.79307 | 35161 ft | 461 kts | 279° |
| 2026-05-06 15:41 | 52.82062 | -17.89720 | 35158 ft | 461 kts | 279° |
| 2026-05-06 15:42 | 52.83072 | -18.00222 | 35154 ft | 461 kts | 279° |
| 2026-05-06 15:42 | 52.84104 | -18.10644 | 35155 ft | 462 kts | 279° |
| 2026-05-06 15:43 | 52.85114 | -18.21149 | 35162 ft | 462 kts | 278° |
| 2026-05-06 15:43 | 52.86096 | -18.31587 | 35156 ft | 461 kts | 278° |
| 2026-05-06 15:44 | 52.87096 | -18.42081 | 35162 ft | 461 kts | 278° |
| 2026-05-06 15:44 | 52.88053 | -18.52574 | 35149 ft | 461 kts | 277° |
| 2026-05-06 15:45 | 52.88989 | -18.63096 | 35149 ft | 461 kts | 277° |
| 2026-05-06 15:45 | 52.89947 | -18.73607 | 35161 ft | 461 kts | 278° |
| 2026-05-06 15:46 | 52.90886 | -18.84074 | 35157 ft | 461 kts | 277° |
| 2026-05-06 15:46 | 52.91814 | -18.94603 | 35165 ft | 461 kts | 277° |
| 2026-05-06 15:47 | 52.92749 | -19.05121 | 35160 ft | 461 kts | 277° |
| 2026-05-06 15:47 | 52.93682 | -19.15658 | 35160 ft | 461 kts | 277° |
| 2026-05-06 15:48 | 52.94582 | -19.26133 | 35169 ft | 461 kts | 276° |
| 2026-05-06 15:48 | 52.95487 | -19.36670 | 35167 ft | 461 kts | 276° |
| 2026-05-06 15:49 | 52.96365 | -19.47203 | 35151 ft | 461 kts | 276° |
| 2026-05-06 15:49 | 52.97249 | -19.57673 | 35163 ft | 461 kts | 276° |
| 2026-05-06 15:50 | 52.98125 | -19.68205 | 35165 ft | 461 kts | 276° |
| 2026-05-06 15:50 | 52.98990 | -19.78777 | 35155 ft | 462 kts | 276° |
| 2026-05-06 15:51 | 52.99829 | -19.89356 | 35154 ft | 462 kts | 275° |
| 2026-05-06 15:51 | 53.00607 | -19.99958 | 35158 ft | 462 kts | 273° |
| 2026-05-06 15:52 | 53.00871 | -20.10600 | 35152 ft | 461 kts | 269° |
| 2026-05-06 15:52 | 53.00999 | -20.21239 | 35160 ft | 461 kts | 271° |
| 2026-05-06 15:53 | 53.01368 | -20.31913 | 35161 ft | 463 kts | 272° |
| 2026-05-06 15:53 | 53.01795 | -20.42534 | 35155 ft | 463 kts | 272° |
| 2026-05-06 15:54 | 53.02198 | -20.53226 | 35160 ft | 463 kts | 271° |
| 2026-05-06 15:54 | 53.02608 | -20.63922 | 35161 ft | 463 kts | 272° |
| 2026-05-06 15:55 | 53.03005 | -20.74553 | 35160 ft | 463 kts | 271° |
| 2026-05-06 15:55 | 53.03398 | -20.85270 | 35162 ft | 465 kts | 271° |
| 2026-05-06 15:56 | 53.03791 | -20.96037 | 35163 ft | 466 kts | 271° |
| 2026-05-06 15:56 | 53.04189 | -21.06739 | 35159 ft | 467 kts | 271° |
| 2026-05-06 15:57 | 53.04552 | -21.17520 | 35160 ft | 467 kts | 271° |
| 2026-05-06 15:57 | 53.04853 | -21.28305 | 35171 ft | 466 kts | 270° |
| 2026-05-06 15:58 | 53.05185 | -21.39084 | 35167 ft | 467 kts | 271° |
| 2026-05-06 15:58 | 53.05552 | -21.49816 | 35172 ft | 467 kts | 271° |
| 2026-05-06 15:59 | 53.05903 | -21.60576 | 35172 ft | 466 kts | 270° |
| 2026-05-06 15:59 | 53.06216 | -21.71335 | 35171 ft | 466 kts | 270° |
| 2026-05-06 16:00 | 53.06506 | -21.82024 | 35169 ft | 465 kts | 270° |
| 2026-05-06 16:00 | 53.06775 | -21.92775 | 35177 ft | 466 kts | 270° |
| 2026-05-06 16:01 | 53.07076 | -22.03564 | 35168 ft | 467 kts | 270° |
| 2026-05-06 16:01 | 53.07377 | -22.14346 | 35171 ft | 467 kts | 270° |
| 2026-05-06 16:02 | 53.07631 | -22.25139 | 35174 ft | 466 kts | 269° |
| 2026-05-06 16:02 | 53.07876 | -22.35927 | 35170 ft | 467 kts | 269° |
| 2026-05-06 16:03 | 53.08154 | -22.46648 | 35176 ft | 467 kts | 269° |
| 2026-05-06 16:03 | 53.08408 | -22.57460 | 35175 ft | 467 kts | 268° |
| 2026-05-06 16:04 | 53.08594 | -22.68265 | 35172 ft | 467 kts | 268° |
| 2026-05-06 16:04 | 53.08760 | -22.77254 | 35173 ft | 467 kts | 268° |
| 2026-05-06 16:05 | 53.08985 | -22.88062 | 35171 ft | 467 kts | 269° |
| 2026-05-06 16:05 | 53.09194 | -22.98880 | 35169 ft | 467 kts | 268° |
| 2026-05-06 16:06 | 53.09384 | -23.09624 | 35174 ft | 468 kts | 268° |
| 2026-05-06 16:06 | 53.09588 | -23.20474 | 35176 ft | 468 kts | 268° |
| 2026-05-06 16:07 | 53.09761 | -23.31294 | 35178 ft | 468 kts | 268° |
| 2026-05-06 16:07 | 53.09914 | -23.42142 | 35175 ft | 468 kts | 268° |
| 2026-05-06 16:08 | 53.10077 | -23.52905 | 35178 ft | 468 kts | 268° |
| 2026-05-06 16:08 | 53.10229 | -23.63742 | 35182 ft | 468 kts | 268° |
| 2026-05-06 16:09 | 53.10371 | -23.74600 | 35177 ft | 469 kts | 268° |
| 2026-05-06 16:09 | 53.10511 | -23.85454 | 35187 ft | 469 kts | 268° |
| 2026-05-06 16:10 | 53.10648 | -23.96303 | 35182 ft | 469 kts | 268° |
| 2026-05-06 16:10 | 53.10785 | -24.07083 | 35175 ft | 468 kts | 267° |
| 2026-05-06 16:11 | 53.10829 | -24.17939 | 35186 ft | 468 kts | 268° |
| 2026-05-06 16:11 | 53.10914 | -24.28780 | 35181 ft | 468 kts | 268° |
| 2026-05-06 16:12 | 53.10993 | -24.39621 | 35174 ft | 468 kts | 268° |
| 2026-05-06 16:12 | 53.11030 | -24.50388 | 35174 ft | 468 kts | 267° |
| 2026-05-06 16:13 | 53.11058 | -24.61209 | 35182 ft | 468 kts | 268° |
| 2026-05-06 16:13 | 53.11108 | -24.72054 | 35177 ft | 468 kts | 268° |
| 2026-05-06 16:14 | 53.11161 | -24.82876 | 35177 ft | 466 kts | 268° |
| 2026-05-06 16:14 | 53.11184 | -24.93598 | 35177 ft | 466 kts | 268° |
| 2026-05-06 16:15 | 53.11197 | -25.04393 | 35179 ft | 466 kts | 267° |
| 2026-05-06 16:15 | 53.11191 | -25.15200 | 35181 ft | 467 kts | 268° |
| 2026-05-06 16:16 | 53.11204 | -25.26016 | 35181 ft | 467 kts | 268° |
| 2026-05-06 16:16 | 53.11180 | -25.36771 | 35175 ft | 467 kts | 267° |
| 2026-05-06 16:17 | 53.11139 | -25.47577 | 35176 ft | 466 kts | 268° |
| 2026-05-06 16:17 | 53.11096 | -25.58397 | 35174 ft | 467 kts | 268° |
| 2026-05-06 16:18 | 53.11058 | -25.69188 | 35167 ft | 466 kts | 267° |
| 2026-05-06 16:18 | 53.10982 | -25.79995 | 35170 ft | 466 kts | 267° |
| 2026-05-06 16:19 | 53.10941 | -25.90740 | 35166 ft | 467 kts | 268° |
| 2026-05-06 16:19 | 53.10886 | -26.01550 | 35167 ft | 467 kts | 267° |
| 2026-05-06 16:20 | 53.10759 | -26.12363 | 35169 ft | 467 kts | 267° |
| 2026-05-06 16:20 | 53.10686 | -26.23200 | 35167 ft | 467 kts | 268° |
| 2026-05-06 16:21 | 53.10639 | -26.33945 | 35166 ft | 467 kts | 267° |
| 2026-05-06 16:21 | 53.10515 | -26.44745 | 35171 ft | 467 kts | 267° |
| 2026-05-06 16:22 | 53.10385 | -26.55562 | 35164 ft | 467 kts | 267° |
| 2026-05-06 16:22 | 53.10280 | -26.66317 | 35169 ft | 467 kts | 266° |
| 2026-05-06 16:23 | 53.10093 | -26.77119 | 35173 ft | 467 kts | 267° |
| 2026-05-06 16:23 | 53.09965 | -26.87920 | 35166 ft | 467 kts | 267° |
| 2026-05-06 16:24 | 53.09811 | -26.98720 | 35154 ft | 467 kts | 266° |
| 2026-05-06 16:24 | 53.09616 | -27.09525 | 35164 ft | 467 kts | 266° |
| 2026-05-06 16:25 | 53.09455 | -27.20329 | 35166 ft | 467 kts | 267° |
| 2026-05-06 16:25 | 53.09308 | -27.31056 | 35144 ft | 467 kts | 266° |
| 2026-05-06 16:26 | 53.09088 | -27.41853 | 35156 ft | 467 kts | 266° |
| 2026-05-06 16:26 | 53.08881 | -27.52669 | 35162 ft | 467 kts | 266° |
| 2026-05-06 16:27 | 53.08590 | -27.63476 | 35143 ft | 468 kts | 266° |
| 2026-05-06 16:27 | 53.08358 | -27.74302 | 35154 ft | 468 kts | 266° |
| 2026-05-06 16:28 | 53.08146 | -27.85064 | 35156 ft | 468 kts | 266° |
| 2026-05-06 16:28 | 53.07896 | -27.95890 | 35136 ft | 468 kts | 266° |
| 2026-05-06 16:29 | 53.07684 | -28.06728 | 35144 ft | 468 kts | 266° |
| 2026-05-06 16:29 | 53.07371 | -28.17541 | 35142 ft | 468 kts | 266° |
| 2026-05-06 16:30 | 53.07148 | -28.26530 | 35132 ft | 468 kts | 266° |
| 2026-05-06 16:30 | 53.06799 | -28.39094 | 35138 ft | 467 kts | 265° |
| 2026-05-06 16:31 | 53.06498 | -28.49909 | 35137 ft | 468 kts | 266° |
| 2026-05-06 16:31 | 53.06204 | -28.60735 | 35134 ft | 468 kts | 266° |
| 2026-05-06 16:32 | 53.05928 | -28.71495 | 35135 ft | 468 kts | 266° |
| 2026-05-06 16:32 | 53.05574 | -28.82310 | 35136 ft | 468 kts | 265° |
| 2026-05-06 16:33 | 53.05243 | -28.93130 | 35133 ft | 469 kts | 266° |
| 2026-05-06 16:34 | 53.04712 | -29.09347 | 35135 ft | 469 kts | 266° |
| 2026-05-06 16:34 | 53.04392 | -29.20115 | 35133 ft | 469 kts | 266° |
| 2026-05-06 16:35 | 53.04046 | -29.30930 | 35125 ft | 468 kts | 266° |
| 2026-05-06 16:35 | 53.03634 | -29.41745 | 35120 ft | 468 kts | 265° |
| 2026-05-06 16:36 | 53.03211 | -29.52560 | 35122 ft | 468 kts | 266° |
| 2026-05-06 16:36 | 53.02822 | -29.63301 | 35121 ft | 468 kts | 265° |
| 2026-05-06 16:37 | 53.02381 | -29.74125 | 35114 ft | 468 kts | 265° |
| 2026-05-06 16:37 | 53.01990 | -29.84929 | 35118 ft | 468 kts | 266° |
| 2026-05-06 16:38 | 53.01514 | -29.95739 | 35120 ft | 469 kts | 266° |
| 2026-05-06 16:38 | 53.01218 | -30.06486 | 35121 ft | 469 kts | 264° |
| 2026-05-06 16:39 | 53.00414 | -30.17219 | 35119 ft | 469 kts | 264° |
| 2026-05-06 16:39 | 52.99962 | -30.28023 | 35117 ft | 469 kts | 268° |
| 2026-05-06 16:40 | 52.99773 | -30.38841 | 35127 ft | 467 kts | 268° |
| 2026-05-06 16:40 | 52.99634 | -30.49601 | 35119 ft | 465 kts | 269° |
| 2026-05-06 16:41 | 52.99510 | -30.60346 | 35126 ft | 466 kts | 269° |
| 2026-05-06 16:41 | 52.99383 | -30.71122 | 35135 ft | 465 kts | 268° |
| 2026-05-06 16:42 | 52.99224 | -30.81804 | 35137 ft | 466 kts | 268° |
| 2026-05-06 16:42 | 52.99086 | -30.92562 | 35142 ft | 465 kts | 268° |
| 2026-05-06 16:43 | 52.98882 | -31.03307 | 35129 ft | 467 kts | 268° |
| 2026-05-06 16:43 | 52.98726 | -31.14071 | 35140 ft | 466 kts | 269° |
| 2026-05-06 16:44 | 52.98596 | -31.24856 | 35140 ft | 468 kts | 269° |
| 2026-05-06 16:44 | 52.98426 | -31.35569 | 35154 ft | 466 kts | 268° |
| 2026-05-06 16:45 | 52.98198 | -31.46367 | 35151 ft | 468 kts | 268° |
| 2026-05-06 16:45 | 52.97965 | -31.57131 | 35154 ft | 467 kts | 268° |
| 2026-05-06 16:46 | 52.97782 | -31.67917 | 35165 ft | 467 kts | 268° |
| 2026-05-06 16:46 | 52.97576 | -31.78684 | 35156 ft | 467 kts | 268° |
| 2026-05-06 16:47 | 52.97383 | -31.89478 | 35158 ft | 468 kts | 268° |
| 2026-05-06 16:47 | 52.97105 | -32.00194 | 35160 ft | 468 kts | 268° |
| 2026-05-06 16:48 | 52.96847 | -32.11019 | 35185 ft | 470 kts | 269° |
| 2026-05-06 16:48 | 52.96572 | -32.21870 | 35175 ft | 471 kts | 268° |
| 2026-05-06 16:49 | 52.96311 | -32.32686 | 35169 ft | 471 kts | 268° |
| 2026-05-06 16:49 | 52.96031 | -32.43550 | 35174 ft | 471 kts | 268° |
| 2026-05-06 16:50 | 52.95728 | -32.54426 | 35176 ft | 471 kts | 268° |
| 2026-05-06 16:50 | 52.95435 | -32.65295 | 35182 ft | 472 kts | 268° |
| 2026-05-06 16:51 | 52.95106 | -32.76092 | 35177 ft | 471 kts | 268° |
| 2026-05-06 16:51 | 52.94774 | -32.86948 | 35185 ft | 472 kts | 268° |
| 2026-05-06 16:52 | 52.94437 | -32.97815 | 35190 ft | 471 kts | 268° |
| 2026-05-06 16:52 | 52.94091 | -33.08666 | 35188 ft | 473 kts | 268° |
| 2026-05-06 16:53 | 52.93734 | -33.19545 | 35192 ft | 472 kts | 268° |
| 2026-05-06 16:53 | 52.93428 | -33.28610 | 35192 ft | 473 kts | 268° |
| 2026-05-06 16:54 | 52.93058 | -33.39428 | 35198 ft | 472 kts | 268° |
| 2026-05-06 16:54 | 52.92660 | -33.50308 | 35202 ft | 472 kts | 268° |
| 2026-05-06 16:55 | 52.92266 | -33.61178 | 35208 ft | 473 kts | 268° |
| 2026-05-06 16:55 | 52.91891 | -33.72062 | 35207 ft | 473 kts | 268° |
| 2026-05-06 16:56 | 52.91470 | -33.82935 | 35206 ft | 473 kts | 267° |
| 2026-05-06 16:56 | 52.91046 | -33.93824 | 35212 ft | 473 kts | 268° |
| 2026-05-06 16:57 | 52.90612 | -34.04658 | 35212 ft | 473 kts | 267° |
| 2026-05-06 16:57 | 52.90159 | -34.15550 | 35218 ft | 473 kts | 267° |
| 2026-05-06 16:58 | 52.89705 | -34.26427 | 35222 ft | 474 kts | 267° |
| 2026-05-06 16:58 | 52.89231 | -34.37244 | 35221 ft | 473 kts | 267° |
| 2026-05-06 16:59 | 52.88775 | -34.48113 | 35230 ft | 472 kts | 268° |
| 2026-05-06 16:59 | 52.88319 | -34.58982 | 35222 ft | 473 kts | 267° |
| 2026-05-06 17:00 | 52.87813 | -34.69821 | 35223 ft | 473 kts | 267° |
| 2026-05-06 17:00 | 52.87286 | -34.80605 | 35236 ft | 472 kts | 267° |
| 2026-05-06 17:01 | 52.86758 | -34.91467 | 35227 ft | 472 kts | 267° |
| 2026-05-06 17:01 | 52.86259 | -35.02308 | 35236 ft | 471 kts | 267° |
| 2026-05-06 17:02 | 52.85724 | -35.13115 | 35228 ft | 471 kts | 268° |
| 2026-05-06 17:02 | 52.85215 | -35.23890 | 35239 ft | 471 kts | 267° |
| 2026-05-06 17:03 | 52.84663 | -35.34696 | 35249 ft | 471 kts | 267° |
| 2026-05-06 17:03 | 52.84077 | -35.45518 | 35243 ft | 471 kts | 267° |
| 2026-05-06 17:04 | 52.83500 | -35.56309 | 35235 ft | 471 kts | 268° |
| 2026-05-06 17:04 | 52.82947 | -35.67017 | 35248 ft | 469 kts | 268° |
| 2026-05-06 17:05 | 52.82378 | -35.77797 | 35243 ft | 469 kts | 267° |
| 2026-05-06 17:05 | 52.81766 | -35.88476 | 35243 ft | 469 kts | 267° |
| 2026-05-06 17:06 | 52.81158 | -35.99229 | 35255 ft | 469 kts | 267° |
| 2026-05-06 17:06 | 52.80542 | -36.09978 | 35235 ft | 469 kts | 268° |
| 2026-05-06 17:07 | 52.79908 | -36.20711 | 35246 ft | 468 kts | 268° |
| 2026-05-06 17:07 | 52.79277 | -36.31406 | 35249 ft | 467 kts | 268° |
| 2026-05-06 17:08 | 52.78636 | -36.42055 | 35254 ft | 467 kts | 268° |
| 2026-05-06 17:08 | 52.77983 | -36.52752 | 35256 ft | 468 kts | 267° |
| 2026-05-06 17:09 | 52.77317 | -36.63451 | 35241 ft | 468 kts | 267° |
| 2026-05-06 17:09 | 52.76646 | -36.74058 | 35259 ft | 466 kts | 268° |
| 2026-05-06 17:10 | 52.75964 | -36.84708 | 35258 ft | 465 kts | 268° |
| 2026-05-06 17:10 | 52.75263 | -36.95343 | 35260 ft | 465 kts | 268° |
| 2026-05-06 17:11 | 52.74585 | -37.05914 | 35263 ft | 465 kts | 268° |
| 2026-05-06 17:11 | 52.73884 | -37.16540 | 35267 ft | 465 kts | 267° |
| 2026-05-06 17:12 | 52.73145 | -37.27081 | 35261 ft | 464 kts | 268° |
| 2026-05-06 17:12 | 52.72404 | -37.37660 | 35269 ft | 463 kts | 268° |
| 2026-05-06 17:13 | 52.71704 | -37.48226 | 35270 ft | 462 kts | 268° |
| 2026-05-06 17:13 | 52.70951 | -37.58725 | 35271 ft | 463 kts | 267° |
| 2026-05-06 17:14 | 52.70194 | -37.69254 | 35274 ft | 462 kts | 268° |
| 2026-05-06 17:14 | 52.69475 | -37.79813 | 35246 ft | 462 kts | 268° |
| 2026-05-06 17:15 | 52.68699 | -37.90344 | 35273 ft | 461 kts | 268° |
| 2026-05-06 17:15 | 52.67893 | -38.00836 | 35277 ft | 460 kts | 268° |
| 2026-05-06 17:16 | 52.67112 | -38.11248 | 35267 ft | 460 kts | 268° |
| 2026-05-06 17:16 | 52.66314 | -38.21704 | 35277 ft | 459 kts | 268° |
| 2026-05-06 17:17 | 52.65529 | -38.32162 | 35281 ft | 459 kts | 268° |
| 2026-05-06 17:17 | 52.64774 | -38.42598 | 35279 ft | 459 kts | 268° |
| 2026-05-06 17:18 | 52.63945 | -38.53035 | 35282 ft | 460 kts | 267° |
| 2026-05-06 17:18 | 52.63067 | -38.63396 | 35284 ft | 459 kts | 267° |
| 2026-05-06 17:19 | 52.62250 | -38.73842 | 35284 ft | 459 kts | 268° |
| 2026-05-06 17:19 | 52.61441 | -38.84270 | 35286 ft | 459 kts | 268° |
| 2026-05-06 17:20 | 52.60586 | -38.94694 | 35278 ft | 459 kts | 268° |
| 2026-05-06 17:20 | 52.59700 | -39.04991 | 35291 ft | 456 kts | 268° |
| 2026-05-06 17:21 | 52.58836 | -39.15318 | 35282 ft | 455 kts | 268° |
| 2026-05-06 17:21 | 52.57961 | -39.25624 | 35284 ft | 454 kts | 268° |
| 2026-05-06 17:22 | 52.57067 | -39.35897 | 35296 ft | 454 kts | 268° |
| 2026-05-06 17:22 | 52.56182 | -39.46121 | 35298 ft | 454 kts | 268° |
| 2026-05-06 17:23 | 52.55288 | -39.56376 | 35290 ft | 450 kts | 269° |
| 2026-05-06 17:23 | 52.54375 | -39.66555 | 35291 ft | 449 kts | 268° |
| 2026-05-06 17:24 | 52.53447 | -39.76704 | 35294 ft | 449 kts | 268° |
| 2026-05-06 17:24 | 52.52530 | -39.86777 | 35295 ft | 448 kts | 269° |
| 2026-05-06 17:25 | 52.51613 | -39.96938 | 35290 ft | 451 kts | 265° |
| 2026-05-06 17:25 | 52.49695 | -40.06894 | 35274 ft | 463 kts | 255° |
| 2026-05-06 17:26 | 52.47067 | -40.16517 | 35298 ft | 459 kts | 257° |
| 2026-05-06 17:26 | 52.44936 | -40.26235 | 35284 ft | 454 kts | 261° |
| 2026-05-06 17:27 | 52.42959 | -40.36052 | 35294 ft | 451 kts | 261° |
| 2026-05-06 17:27 | 52.41006 | -40.45804 | 35299 ft | 449 kts | 261° |
| 2026-05-06 17:28 | 52.39082 | -40.55478 | 35287 ft | 448 kts | 261° |
| 2026-05-06 17:28 | 52.37138 | -40.65121 | 35300 ft | 444 kts | 261° |
| 2026-05-06 17:29 | 52.35211 | -40.74718 | 35301 ft | 443 kts | 262° |
| 2026-05-06 17:29 | 52.33319 | -40.84250 | 35303 ft | 444 kts | 262° |
| 2026-05-06 17:30 | 52.31350 | -40.93843 | 35303 ft | 445 kts | 261° |
| 2026-05-06 17:30 | 52.29352 | -41.03415 | 35293 ft | 444 kts | 262° |
| 2026-05-06 17:31 | 52.27432 | -41.12943 | 35312 ft | 445 kts | 261° |
| 2026-05-06 17:31 | 52.25418 | -41.22536 | 35311 ft | 446 kts | 261° |
| 2026-05-06 17:32 | 52.23446 | -41.32124 | 35306 ft | 445 kts | 262° |
| 2026-05-06 17:32 | 52.21495 | -41.41710 | 35310 ft | 446 kts | 261° |
| 2026-05-06 17:33 | 52.19453 | -41.51296 | 35306 ft | 447 kts | 261° |
| 2026-05-06 17:33 | 52.17455 | -41.60850 | 35311 ft | 449 kts | 261° |
| 2026-05-06 17:34 | 52.15388 | -41.70474 | 35311 ft | 449 kts | 260° |
| 2026-05-06 17:34 | 52.13358 | -41.80097 | 35312 ft | 449 kts | 260° |
| 2026-05-06 17:35 | 52.11311 | -41.89660 | 35313 ft | 450 kts | 260° |
| 2026-05-06 17:35 | 52.09227 | -41.99266 | 35306 ft | 450 kts | 260° |
| 2026-05-06 17:36 | 52.06153 | -42.13708 | 35319 ft | 451 kts | 259° |
| 2026-05-06 17:36 | 52.04071 | -42.23340 | 35317 ft | 451 kts | 259° |
| 2026-05-06 17:37 | 52.01949 | -42.32881 | 35314 ft | 451 kts | 259° |
| 2026-05-06 17:37 | 51.99817 | -42.42482 | 35303 ft | 450 kts | 259° |
| 2026-05-06 17:38 | 51.97744 | -42.52075 | 35311 ft | 450 kts | 259° |
| 2026-05-06 17:38 | 51.95633 | -42.61568 | 35318 ft | 450 kts | 259° |
| 2026-05-06 17:39 | 51.93557 | -42.71133 | 35315 ft | 449 kts | 259° |
| 2026-05-06 17:39 | 51.91437 | -42.80702 | 35311 ft | 450 kts | 258° |
| 2026-05-06 17:40 | 51.89256 | -42.90218 | 35302 ft | 450 kts | 258° |
| 2026-05-06 17:40 | 51.87111 | -42.99650 | 35312 ft | 447 kts | 259° |
| 2026-05-06 17:41 | 51.84997 | -43.09129 | 35319 ft | 447 kts | 258° |
| 2026-05-06 17:41 | 51.83236 | -43.17009 | 35309 ft | 447 kts | 258° |
| 2026-05-06 17:42 | 51.80693 | -43.27924 | 35316 ft | 445 kts | 258° |
| 2026-05-06 17:42 | 51.78910 | -43.35731 | 35321 ft | 444 kts | 258° |
| 2026-05-06 17:43 | 51.76438 | -43.46634 | 35317 ft | 444 kts | 258° |
| 2026-05-06 17:43 | 51.74602 | -43.54403 | 35315 ft | 445 kts | 257° |
| 2026-05-06 17:44 | 51.72410 | -43.63750 | 35315 ft | 444 kts | 258° |
| 2026-05-06 17:44 | 51.70273 | -43.73098 | 35311 ft | 445 kts | 257° |
| 2026-05-06 17:45 | 51.68081 | -43.82412 | 35301 ft | 444 kts | 257° |
| 2026-05-06 17:45 | 51.65896 | -43.91647 | 35304 ft | 443 kts | 256° |
| 2026-05-06 17:46 | 51.63715 | -44.00902 | 35304 ft | 442 kts | 257° |
| 2026-05-06 17:46 | 51.61522 | -44.10181 | 35306 ft | 442 kts | 257° |
| 2026-05-06 17:47 | 51.59341 | -44.19421 | 35303 ft | 442 kts | 256° |
| 2026-05-06 17:47 | 51.57100 | -44.28578 | 35291 ft | 441 kts | 256° |
| 2026-05-06 17:48 | 51.54898 | -44.37794 | 35295 ft | 441 kts | 255° |
| 2026-05-06 17:48 | 51.52676 | -44.46981 | 35289 ft | 440 kts | 256° |
| 2026-05-06 17:49 | 51.50507 | -44.56165 | 35296 ft | 440 kts | 256° |
| 2026-05-06 17:49 | 51.48308 | -44.65276 | 35300 ft | 439 kts | 255° |
| 2026-05-06 17:50 | 51.46029 | -44.74386 | 35283 ft | 440 kts | 254° |
| 2026-05-06 17:50 | 51.43762 | -44.83484 | 35287 ft | 442 kts | 254° |
| 2026-05-06 17:51 | 51.41510 | -44.92653 | 35284 ft | 441 kts | 255° |
| 2026-05-06 17:51 | 51.39265 | -45.01813 | 35287 ft | 442 kts | 254° |
| 2026-05-06 17:52 | 51.36987 | -45.10876 | 35282 ft | 441 kts | 255° |
| 2026-05-06 17:52 | 51.34762 | -45.20026 | 35271 ft | 442 kts | 253° |
| 2026-05-06 17:53 | 51.32460 | -45.29157 | 35278 ft | 441 kts | 254° |
| 2026-05-06 17:53 | 51.30218 | -45.38305 | 35278 ft | 442 kts | 253° |
| 2026-05-06 17:54 | 51.27868 | -45.47384 | 35273 ft | 443 kts | 253° |
| 2026-05-06 17:54 | 51.25564 | -45.56438 | 35273 ft | 442 kts | 254° |
| 2026-05-06 17:55 | 51.23270 | -45.65558 | 35276 ft | 443 kts | 252° |
| 2026-05-06 17:55 | 51.20932 | -45.74642 | 35272 ft | 443 kts | 253° |
| 2026-05-06 17:56 | 51.18625 | -45.83753 | 35283 ft | 442 kts | 253° |
| 2026-05-06 17:56 | 51.16314 | -45.92784 | 35289 ft | 443 kts | 252° |
| 2026-05-06 17:57 | 51.13929 | -46.01839 | 35262 ft | 442 kts | 252° |
| 2026-05-06 17:57 | 51.11583 | -46.10882 | 35271 ft | 441 kts | 252° |
| 2026-05-06 17:58 | 51.09236 | -46.19900 | 35272 ft | 441 kts | 252° |
| 2026-05-06 17:58 | 51.06882 | -46.28838 | 35276 ft | 441 kts | 251° |
| 2026-05-06 17:59 | 51.04538 | -46.37836 | 35274 ft | 440 kts | 252° |
| 2026-05-06 17:59 | 51.02164 | -46.46833 | 35267 ft | 441 kts | 251° |
| 2026-05-06 18:00 | 50.99814 | -46.55813 | 35273 ft | 439 kts | 251° |
| 2026-05-06 18:00 | 50.97439 | -46.64748 | 35273 ft | 439 kts | 251° |
| 2026-05-06 18:01 | 50.95119 | -46.73631 | 35272 ft | 438 kts | 251° |
| 2026-05-06 18:01 | 50.92758 | -46.82547 | 35276 ft | 439 kts | 251° |
| 2026-05-06 18:02 | 50.90291 | -46.91424 | 35254 ft | 439 kts | 250° |
| 2026-05-06 18:02 | 50.87881 | -47.00295 | 35268 ft | 437 kts | 250° |
| 2026-05-06 18:03 | 50.85468 | -47.09065 | 35271 ft | 437 kts | 250° |
| 2026-05-06 18:03 | 50.83032 | -47.17894 | 35271 ft | 437 kts | 250° |
| 2026-05-06 18:04 | 50.80620 | -47.26722 | 35275 ft | 437 kts | 250° |
| 2026-05-06 18:04 | 50.78151 | -47.35514 | 35263 ft | 436 kts | 249° |
| 2026-05-06 18:05 | 50.75777 | -47.44251 | 35275 ft | 434 kts | 250° |
| 2026-05-06 18:05 | 50.73414 | -47.53027 | 35269 ft | 434 kts | 249° |
| 2026-05-06 18:06 | 50.71036 | -47.61815 | 35268 ft | 434 kts | 250° |
| 2026-05-06 18:06 | 50.68641 | -47.70511 | 35271 ft | 434 kts | 249° |
| 2026-05-06 18:07 | 50.66143 | -47.79182 | 35271 ft | 434 kts | 249° |
| 2026-05-06 18:07 | 50.63645 | -47.87856 | 35273 ft | 435 kts | 248° |
| 2026-05-06 18:08 | 50.61210 | -47.96570 | 35273 ft | 434 kts | 249° |
| 2026-05-06 18:08 | 50.58780 | -48.05216 | 35274 ft | 434 kts | 249° |
| 2026-05-06 18:09 | 50.56372 | -48.13932 | 35270 ft | 434 kts | 249° |
| 2026-05-06 18:09 | 50.53965 | -48.22660 | 35268 ft | 434 kts | 249° |
| 2026-05-06 18:10 | 50.51463 | -48.31264 | 35267 ft | 435 kts | 247° |
| 2026-05-06 18:10 | 50.48932 | -48.39903 | 35273 ft | 435 kts | 248° |
| 2026-05-06 18:11 | 50.46500 | -48.48612 | 35277 ft | 435 kts | 248° |
| 2026-05-06 18:11 | 50.43950 | -48.57228 | 35283 ft | 435 kts | 247° |
| 2026-05-06 18:12 | 50.41409 | -48.65830 | 35268 ft | 434 kts | 247° |
| 2026-05-06 18:12 | 50.38874 | -48.74416 | 35278 ft | 433 kts | 247° |
| 2026-05-06 18:13 | 50.36347 | -48.82993 | 35269 ft | 433 kts | 247° |
| 2026-05-06 18:13 | 50.33870 | -48.91537 | 35273 ft | 433 kts | 248° |
| 2026-05-06 18:14 | 50.31436 | -49.00173 | 35281 ft | 433 kts | 247° |
| 2026-05-06 18:14 | 50.28896 | -49.08734 | 35271 ft | 434 kts | 246° |
| 2026-05-06 18:15 | 50.26378 | -49.17312 | 35269 ft | 434 kts | 247° |
| 2026-05-06 18:15 | 50.23831 | -49.25816 | 35277 ft | 434 kts | 247° |
| 2026-05-06 18:16 | 50.21329 | -49.34418 | 35269 ft | 434 kts | 247° |
| 2026-05-06 18:16 | 50.18724 | -49.42928 | 35272 ft | 434 kts | 245° |
| 2026-05-06 18:17 | 50.16083 | -49.51363 | 35279 ft | 435 kts | 246° |
| 2026-05-06 18:17 | 50.13560 | -49.59944 | 35266 ft | 435 kts | 247° |
| 2026-05-06 18:18 | 50.11040 | -49.68511 | 35270 ft | 435 kts | 246° |
| 2026-05-06 18:18 | 50.08452 | -49.77037 | 35276 ft | 435 kts | 246° |
| 2026-05-06 18:19 | 50.05825 | -49.85539 | 35263 ft | 435 kts | 245° |
| 2026-05-06 18:19 | 50.03255 | -49.94016 | 35274 ft | 436 kts | 246° |
| 2026-05-06 18:20 | 50.00737 | -50.02584 | 35276 ft | 435 kts | 248° |
| 2026-05-06 18:20 | 49.98098 | -50.11069 | 35272 ft | 436 kts | 244° |
| 2026-05-06 18:21 | 49.95494 | -50.19577 | 35269 ft | 435 kts | 248° |
| 2026-05-06 18:21 | 49.93241 | -50.28303 | 35260 ft | 435 kts | 250° |
| 2026-05-06 18:22 | 49.91138 | -50.37048 | 35272 ft | 435 kts | 250° |
| 2026-05-06 18:22 | 49.89012 | -50.45860 | 35272 ft | 435 kts | 250° |
| 2026-05-06 18:23 | 49.86875 | -50.54659 | 35278 ft | 435 kts | 250° |
| 2026-05-06 18:23 | 49.84706 | -50.63357 | 35275 ft | 435 kts | 250° |
| 2026-05-06 18:24 | 49.82542 | -50.72125 | 35266 ft | 435 kts | 250° |
| 2026-05-06 18:24 | 49.80366 | -50.80895 | 35276 ft | 436 kts | 250° |
| 2026-05-06 18:25 | 49.78215 | -50.89685 | 35279 ft | 436 kts | 250° |
| 2026-05-06 18:25 | 49.76094 | -50.98435 | 35267 ft | 436 kts | 249° |
| 2026-05-06 18:26 | 49.73847 | -51.07163 | 35272 ft | 436 kts | 249° |
| 2026-05-06 18:26 | 49.71695 | -51.15914 | 35264 ft | 436 kts | 249° |
| 2026-05-06 18:27 | 49.69502 | -51.24613 | 35268 ft | 436 kts | 249° |
| 2026-05-06 18:27 | 49.67312 | -51.33344 | 35264 ft | 436 kts | 249° |
| 2026-05-06 18:28 | 49.65118 | -51.42084 | 35264 ft | 436 kts | 249° |
| 2026-05-06 18:28 | 49.62910 | -51.50826 | 35262 ft | 436 kts | 249° |
| 2026-05-06 18:29 | 49.60700 | -51.59491 | 35267 ft | 436 kts | 249° |
| 2026-05-06 18:29 | 49.58474 | -51.68211 | 35254 ft | 437 kts | 249° |
| 2026-05-06 18:30 | 49.56250 | -51.76897 | 35255 ft | 438 kts | 249° |
| 2026-05-06 18:30 | 49.53998 | -51.85606 | 35260 ft | 437 kts | 249° |
| 2026-05-06 18:31 | 49.51741 | -51.94304 | 35266 ft | 436 kts | 249° |
| 2026-05-06 18:31 | 49.49631 | -52.03037 | 35255 ft | 434 kts | 251° |
| 2026-05-06 18:32 | 49.47971 | -52.10338 | 35251 ft | 434 kts | 251° |
| 2026-05-06 18:32 | 49.45657 | -52.20540 | 35252 ft | 434 kts | 251° |
| 2026-05-06 18:33 | 49.44027 | -52.27855 | 35248 ft | 435 kts | 252° |
| 2026-05-06 18:33 | 49.42092 | -52.36652 | 35246 ft | 434 kts | 252° |
| 2026-05-06 18:34 | 49.40173 | -52.45475 | 35237 ft | 434 kts | 252° |
| 2026-05-06 18:34 | 49.38240 | -52.54223 | 35238 ft | 435 kts | 252° |
| 2026-05-06 18:35 | 49.36299 | -52.63018 | 35237 ft | 435 kts | 252° |
| 2026-05-06 18:35 | 49.34369 | -52.71816 | 35233 ft | 435 kts | 252° |
| 2026-05-06 18:36 | 49.32418 | -52.80583 | 35223 ft | 434 kts | 251° |
| 2026-05-06 18:36 | 49.30463 | -52.89309 | 35221 ft | 432 kts | 251° |
| 2026-05-06 18:37 | 49.28529 | -52.98025 | 35221 ft | 432 kts | 251° |
| 2026-05-06 18:37 | 49.26569 | -53.06687 | 35295 ft | 431 kts | 251° |
| 2026-05-06 18:38 | 49.25588 | -53.11037 | 35425 ft | 432 kts | 251° |
| 2026-05-06 18:38 | 49.24601 | -53.15383 | 35557 ft | 432 kts | 251° |
| 2026-05-06 18:38 | 49.23606 | -53.19737 | 35676 ft | 431 kts | 251° |
| 2026-05-06 18:38 | 49.22623 | -53.24073 | 35808 ft | 431 kts | 251° |
| 2026-05-06 18:39 | 49.21641 | -53.28403 | 35943 ft | 430 kts | 251° |
| 2026-05-06 18:39 | 49.20666 | -53.32674 | 36086 ft | 429 kts | 251° |
| 2026-05-06 18:39 | 49.19680 | -53.36988 | 36196 ft | 430 kts | 251° |
| 2026-05-06 18:40 | 49.17701 | -53.45631 | 36213 ft | 430 kts | 251° |
| 2026-05-06 18:40 | 49.15721 | -53.54252 | 36218 ft | 430 kts | 251° |
| 2026-05-06 18:41 | 49.13729 | -53.62876 | 36218 ft | 430 kts | 251° |
| 2026-05-06 18:41 | 49.11732 | -53.71500 | 36223 ft | 430 kts | 251° |
| 2026-05-06 18:42 | 49.09747 | -53.80054 | 36225 ft | 430 kts | 251° |
| 2026-05-06 18:42 | 49.07722 | -53.88657 | 36213 ft | 430 kts | 251° |
| 2026-05-06 18:43 | 49.05702 | -53.97281 | 36234 ft | 432 kts | 251° |
| 2026-05-06 18:43 | 49.03674 | -54.05898 | 36229 ft | 432 kts | 251° |
| 2026-05-06 18:44 | 49.01633 | -54.14505 | 36243 ft | 432 kts | 251° |
| 2026-05-06 18:44 | 48.99602 | -54.23110 | 36238 ft | 432 kts | 251° |
| 2026-05-06 18:45 | 48.97562 | -54.31710 | 36245 ft | 432 kts | 251° |
| 2026-05-06 18:45 | 48.95512 | -54.40306 | 36230 ft | 432 kts | 250° |
| 2026-05-06 18:46 | 48.93422 | -54.48822 | 36236 ft | 431 kts | 251° |
| 2026-05-06 18:46 | 48.91344 | -54.57391 | 36229 ft | 431 kts | 251° |
| 2026-05-06 18:47 | 48.89275 | -54.65963 | 36225 ft | 431 kts | 251° |
| 2026-05-06 18:47 | 48.87220 | -54.74481 | 36231 ft | 431 kts | 251° |
| 2026-05-06 18:48 | 48.85139 | -54.83039 | 36235 ft | 432 kts | 251° |
| 2026-05-06 18:48 | 48.83038 | -54.91600 | 36238 ft | 432 kts | 251° |
| 2026-05-06 18:49 | 48.80939 | -55.00154 | 36242 ft | 433 kts | 251° |
| 2026-05-06 18:49 | 48.78818 | -55.08699 | 36250 ft | 432 kts | 250° |
| 2026-05-06 18:50 | 48.76696 | -55.17237 | 36245 ft | 432 kts | 250° |
| 2026-05-06 18:50 | 48.74581 | -55.25772 | 36250 ft | 433 kts | 251° |
| 2026-05-06 18:51 | 48.72476 | -55.34248 | 36245 ft | 432 kts | 251° |
| 2026-05-06 18:51 | 48.70328 | -55.42764 | 36238 ft | 432 kts | 250° |
| 2026-05-06 18:52 | 48.68177 | -55.51282 | 36238 ft | 432 kts | 251° |
| 2026-05-06 18:52 | 48.66046 | -55.59737 | 36239 ft | 432 kts | 251° |
| 2026-05-06 18:53 | 48.63892 | -55.68248 | 36240 ft | 432 kts | 251° |
| 2026-05-06 18:53 | 48.61753 | -55.76681 | 36229 ft | 430 kts | 251° |
| 2026-05-06 18:54 | 48.59623 | -55.85137 | 36229 ft | 430 kts | 251° |
| 2026-05-06 18:54 | 48.57462 | -55.93501 | 36227 ft | 430 kts | 250° |
| 2026-05-06 18:55 | 48.55254 | -56.01893 | 36234 ft | 430 kts | 250° |
| 2026-05-06 18:55 | 48.53080 | -56.10312 | 36222 ft | 430 kts | 250° |
| 2026-05-06 18:56 | 48.50909 | -56.18718 | 36226 ft | 431 kts | 250° |
| 2026-05-06 18:56 | 48.48717 | -56.27168 | 36224 ft | 432 kts | 250° |
| 2026-05-06 18:57 | 48.46534 | -56.35556 | 36231 ft | 432 kts | 250° |
| 2026-05-06 18:57 | 48.44324 | -56.43980 | 36227 ft | 432 kts | 250° |
| 2026-05-06 18:58 | 48.42111 | -56.52389 | 36221 ft | 432 kts | 250° |
| 2026-05-06 18:58 | 48.39886 | -56.60821 | 36224 ft | 432 kts | 250° |
| 2026-05-06 18:59 | 48.37686 | -56.69182 | 36225 ft | 432 kts | 250° |
| 2026-05-06 18:59 | 48.35464 | -56.77594 | 36222 ft | 432 kts | 250° |
| 2026-05-06 19:00 | 48.33201 | -56.85976 | 36253 ft | 432 kts | 250° |
| 2026-05-06 19:00 | 48.30956 | -56.94301 | 36241 ft | 431 kts | 250° |
| 2026-05-06 19:01 | 48.28691 | -57.02648 | 36260 ft | 432 kts | 250° |
| 2026-05-06 19:01 | 48.26442 | -57.11020 | 36263 ft | 432 kts | 250° |
| 2026-05-06 19:02 | 48.24187 | -57.19393 | 36278 ft | 432 kts | 250° |
| 2026-05-06 19:02 | 48.21915 | -57.27748 | 36275 ft | 432 kts | 250° |
| 2026-05-06 19:03 | 48.19647 | -57.36043 | 36278 ft | 432 kts | 250° |
| 2026-05-06 19:03 | 48.17368 | -57.44399 | 36275 ft | 433 kts | 250° |
| 2026-05-06 19:04 | 48.15077 | -57.52755 | 36284 ft | 433 kts | 250° |
| 2026-05-06 19:04 | 48.12788 | -57.61058 | 36287 ft | 433 kts | 250° |
| 2026-05-06 19:05 | 48.10483 | -57.69395 | 36278 ft | 432 kts | 250° |
| 2026-05-06 19:05 | 48.08177 | -57.77691 | 36277 ft | 431 kts | 249° |
| 2026-05-06 19:06 | 48.05888 | -57.85912 | 36279 ft | 431 kts | 249° |
| 2026-05-06 19:06 | 48.03604 | -57.94195 | 36268 ft | 431 kts | 249° |
| 2026-05-06 19:07 | 48.01251 | -58.02443 | 36277 ft | 431 kts | 249° |
| 2026-05-06 19:07 | 47.98917 | -58.10690 | 36275 ft | 431 kts | 249° |
| 2026-05-06 19:08 | 47.96618 | -58.18901 | 36282 ft | 431 kts | 249° |
| 2026-05-06 19:08 | 47.94278 | -58.27146 | 36258 ft | 431 kts | 249° |
| 2026-05-06 19:09 | 47.91926 | -58.35373 | 36265 ft | 431 kts | 249° |
| 2026-05-06 19:09 | 47.89582 | -58.43601 | 36268 ft | 431 kts | 249° |
| 2026-05-06 19:10 | 47.87237 | -58.51811 | 36271 ft | 431 kts | 249° |
| 2026-05-06 19:10 | 47.84880 | -58.60022 | 36253 ft | 431 kts | 249° |
| 2026-05-06 19:11 | 47.82549 | -58.68175 | 36250 ft | 431 kts | 249° |
| 2026-05-06 19:11 | 47.80184 | -58.76381 | 36253 ft | 432 kts | 249° |
| 2026-05-06 19:12 | 47.77770 | -58.84580 | 36246 ft | 432 kts | 248° |
| 2026-05-06 19:12 | 47.75376 | -58.92777 | 36254 ft | 432 kts | 249° |
| 2026-05-06 19:13 | 47.72979 | -59.00969 | 36243 ft | 432 kts | 249° |
| 2026-05-06 19:13 | 47.70596 | -59.09120 | 36248 ft | 432 kts | 249° |
| 2026-05-06 19:14 | 47.68211 | -59.17329 | 36236 ft | 432 kts | 249° |
| 2026-05-06 19:14 | 47.65827 | -59.25501 | 36228 ft | 430 kts | 248° |
| 2026-05-06 19:15 | 47.63435 | -59.33576 | 36220 ft | 430 kts | 248° |
| 2026-05-06 19:15 | 47.60981 | -59.41660 | 36224 ft | 430 kts | 248° |
| 2026-05-06 19:16 | 47.58558 | -59.49765 | 36211 ft | 430 kts | 248° |
| 2026-05-06 19:16 | 47.56150 | -59.57877 | 36202 ft | 430 kts | 248° |
| 2026-05-06 19:17 | 47.53722 | -59.65986 | 36196 ft | 430 kts | 248° |
| 2026-05-06 19:17 | 47.51280 | -59.74004 | 36197 ft | 430 kts | 248° |
| 2026-05-06 19:18 | 47.48834 | -59.82088 | 36181 ft | 430 kts | 248° |
| 2026-05-06 19:18 | 47.46376 | -59.90177 | 36175 ft | 430 kts | 248° |
| 2026-05-06 19:19 | 47.43991 | -59.98211 | 36182 ft | 429 kts | 248° |
| 2026-05-06 19:19 | 47.41541 | -60.06221 | 36173 ft | 428 kts | 248° |
| 2026-05-06 19:20 | 47.39085 | -60.14242 | 36169 ft | 428 kts | 248° |
| 2026-05-06 19:20 | 47.37006 | -60.20878 | 36169 ft | 428 kts | 248° |
| 2026-05-06 19:21 | 47.34157 | -60.30171 | 36150 ft | 428 kts | 248° |
| 2026-05-06 19:21 | 47.31685 | -60.38159 | 36152 ft | 428 kts | 248° |
| 2026-05-06 19:22 | 47.29599 | -60.44785 | 36153 ft | 428 kts | 247° |
| 2026-05-06 19:22 | 47.27160 | -60.52787 | 36156 ft | 427 kts | 248° |
| 2026-05-06 19:23 | 47.24675 | -60.60763 | 36153 ft | 428 kts | 247° |
| 2026-05-06 19:23 | 47.22203 | -60.68663 | 36151 ft | 427 kts | 248° |
| 2026-05-06 19:24 | 47.19708 | -60.76552 | 36153 ft | 424 kts | 247° |
| 2026-05-06 19:24 | 47.17242 | -60.84415 | 36149 ft | 423 kts | 248° |
| 2026-05-06 19:25 | 47.14771 | -60.92277 | 36145 ft | 423 kts | 247° |
| 2026-05-06 19:25 | 47.12254 | -61.00036 | 36143 ft | 423 kts | 246° |
| 2026-05-06 19:26 | 47.09751 | -61.07871 | 36130 ft | 423 kts | 248° |
| 2026-05-06 19:26 | 47.07276 | -61.15700 | 36141 ft | 423 kts | 248° |
| 2026-05-06 19:27 | 47.04810 | -61.23486 | 36137 ft | 423 kts | 248° |
| 2026-05-06 19:27 | 47.02336 | -61.31310 | 36133 ft | 423 kts | 248° |
| 2026-05-06 19:28 | 46.99791 | -61.39107 | 36163 ft | 423 kts | 246° |
| 2026-05-06 19:28 | 46.97286 | -61.46859 | 36123 ft | 418 kts | 247° |
| 2026-05-06 19:29 | 46.94810 | -61.54472 | 36122 ft | 416 kts | 247° |
| 2026-05-06 19:29 | 46.92343 | -61.62143 | 36121 ft | 416 kts | 248° |
| 2026-05-06 19:30 | 46.89854 | -61.69797 | 36122 ft | 416 kts | 247° |
| 2026-05-06 19:30 | 46.87367 | -61.77391 | 36124 ft | 416 kts | 247° |
| 2026-05-06 19:31 | 46.84849 | -61.85029 | 36118 ft | 416 kts | 247° |
| 2026-05-06 19:31 | 46.81108 | -61.96423 | 36122 ft | 417 kts | 246° |
| 2026-05-06 19:32 | 46.78542 | -62.04016 | 36129 ft | 416 kts | 247° |
| 2026-05-06 19:32 | 46.76058 | -62.11642 | 36133 ft | 416 kts | 246° |
| 2026-05-06 19:33 | 46.73571 | -62.19230 | 36116 ft | 412 kts | 246° |
| 2026-05-06 19:33 | 46.71083 | -62.26698 | 36108 ft | 412 kts | 246° |
| 2026-05-06 19:34 | 46.68574 | -62.34236 | 36114 ft | 414 kts | 246° |
| 2026-05-06 19:34 | 46.66043 | -62.41771 | 36102 ft | 414 kts | 246° |
| 2026-05-06 19:35 | 46.63486 | -62.49302 | 36107 ft | 414 kts | 246° |
| 2026-05-06 19:35 | 46.60981 | -62.56787 | 36104 ft | 414 kts | 246° |
| 2026-05-06 19:36 | 46.58442 | -62.64325 | 36096 ft | 414 kts | 246° |
| 2026-05-06 19:36 | 46.55895 | -62.71861 | 36099 ft | 416 kts | 246° |
| 2026-05-06 19:37 | 46.53342 | -62.79409 | 36111 ft | 416 kts | 246° |
| 2026-05-06 19:37 | 46.50781 | -62.86939 | 36108 ft | 413 kts | 245° |
| 2026-05-06 19:38 | 46.48233 | -62.94427 | 36105 ft | 412 kts | 245° |
| 2026-05-06 19:38 | 46.45679 | -63.01833 | 36083 ft | 412 kts | 245° |
| 2026-05-06 19:39 | 46.43102 | -63.09283 | 36105 ft | 413 kts | 245° |
| 2026-05-06 19:39 | 46.40545 | -63.16685 | 36122 ft | 413 kts | 245° |
| 2026-05-06 19:40 | 46.37969 | -63.24122 | 36117 ft | 413 kts | 245° |
| 2026-05-06 19:40 | 46.35406 | -63.31568 | 36117 ft | 413 kts | 245° |
| 2026-05-06 19:41 | 46.32825 | -63.38987 | 36120 ft | 413 kts | 245° |
| 2026-05-06 19:41 | 46.30247 | -63.46419 | 36115 ft | 413 kts | 245° |
| 2026-05-06 19:42 | 46.27699 | -63.53819 | 36102 ft | 413 kts | 245° |
| 2026-05-06 19:42 | 46.25095 | -63.61202 | 36103 ft | 412 kts | 244° |
| 2026-05-06 19:43 | 46.22459 | -63.68554 | 36100 ft | 411 kts | 245° |
| 2026-05-06 19:43 | 46.19912 | -63.75958 | 36083 ft | 411 kts | 245° |
| 2026-05-06 19:44 | 46.17310 | -63.83276 | 36080 ft | 412 kts | 244° |
| 2026-05-06 19:44 | 46.14672 | -63.90627 | 36084 ft | 412 kts | 244° |
| 2026-05-06 19:45 | 46.12069 | -63.98011 | 36082 ft | 412 kts | 244° |
| 2026-05-06 19:45 | 46.09468 | -64.05390 | 36075 ft | 412 kts | 244° |
| 2026-05-06 19:46 | 46.06835 | -64.12666 | 36078 ft | 412 kts | 244° |
| 2026-05-06 19:46 | 46.04226 | -64.20031 | 36073 ft | 412 kts | 244° |
| 2026-05-06 19:47 | 46.01601 | -64.27355 | 36073 ft | 410 kts | 243° |
| 2026-05-06 19:47 | 45.98969 | -64.34588 | 36071 ft | 410 kts | 244° |
| 2026-05-06 19:48 | 45.96381 | -64.41895 | 36073 ft | 409 kts | 245° |
| 2026-05-06 19:48 | 45.93775 | -64.49188 | 36070 ft | 410 kts | 243° |
| 2026-05-06 19:49 | 45.91058 | -64.56395 | 36077 ft | 410 kts | 244° |
| 2026-05-06 19:49 | 45.88501 | -64.63641 | 36073 ft | 409 kts | 244° |
| 2026-05-06 19:50 | 45.85890 | -64.70925 | 36091 ft | 410 kts | 243° |
| 2026-05-06 19:50 | 45.83082 | -64.78055 | 36086 ft | 410 kts | 243° |
| 2026-05-06 19:51 | 45.80471 | -64.85316 | 36091 ft | 409 kts | 244° |
| 2026-05-06 19:51 | 45.77915 | -64.92519 | 36089 ft | 407 kts | 242° |
| 2026-05-06 19:52 | 45.75191 | -64.99635 | 36091 ft | 407 kts | 242° |
| 2026-05-06 19:52 | 45.72515 | -65.06778 | 36095 ft | 407 kts | 243° |
| 2026-05-06 19:53 | 45.69890 | -65.13970 | 36102 ft | 407 kts | 242° |
| 2026-05-06 19:53 | 45.67203 | -65.21103 | 36082 ft | 407 kts | 243° |
| 2026-05-06 19:54 | 45.64570 | -65.28216 | 36102 ft | 407 kts | 243° |
| 2026-05-06 19:54 | 45.61967 | -65.35425 | 36101 ft | 407 kts | 242° |
| 2026-05-06 19:55 | 45.59283 | -65.42562 | 36109 ft | 408 kts | 242° |
| 2026-05-06 19:55 | 45.56577 | -65.49632 | 36112 ft | 407 kts | 242° |
| 2026-05-06 19:56 | 45.53844 | -65.56721 | 36095 ft | 407 kts | 242° |
| 2026-05-06 19:56 | 45.51099 | -65.63783 | 36105 ft | 407 kts | 242° |
| 2026-05-06 19:57 | 45.48472 | -65.70950 | 36119 ft | 407 kts | 243° |
| 2026-05-06 19:57 | 45.45817 | -65.78036 | 36110 ft | 407 kts | 242° |
| 2026-05-06 19:58 | 45.43139 | -65.85153 | 36115 ft | 407 kts | 242° |
| 2026-05-06 19:58 | 45.40477 | -65.92292 | 36116 ft | 407 kts | 243° |
| 2026-05-06 19:59 | 45.37777 | -65.99383 | 36117 ft | 407 kts | 240° |
| 2026-05-06 19:59 | 45.34910 | -66.06265 | 36117 ft | 407 kts | 242° |
| 2026-05-06 20:00 | 45.32211 | -66.13346 | 36128 ft | 407 kts | 242° |
| 2026-05-06 20:00 | 45.29546 | -66.20434 | 36110 ft | 405 kts | 242° |
| 2026-05-06 20:01 | 45.26904 | -66.27430 | 36103 ft | 404 kts | 241° |
| 2026-05-06 20:01 | 45.24199 | -66.34443 | 36100 ft | 405 kts | 241° |
| 2026-05-06 20:02 | 45.21471 | -66.41459 | 36092 ft | 405 kts | 241° |
| 2026-05-06 20:02 | 45.18760 | -66.48469 | 36090 ft | 405 kts | 241° |
| 2026-05-06 20:03 | 45.16036 | -66.55416 | 36092 ft | 405 kts | 240° |
| 2026-05-06 20:03 | 45.13255 | -66.62340 | 36083 ft | 405 kts | 240° |
| 2026-05-06 20:04 | 45.10439 | -66.69283 | 36076 ft | 406 kts | 241° |
| 2026-05-06 20:04 | 45.07790 | -66.76339 | 36250 ft | 406 kts | 242° |
| 2026-05-06 20:05 | 45.06460 | -66.79809 | 36404 ft | 406 kts | 240° |
| 2026-05-06 20:05 | 45.05063 | -66.83279 | 36529 ft | 405 kts | 240° |
| 2026-05-06 20:05 | 45.03654 | -66.86727 | 36661 ft | 405 kts | 240° |
| 2026-05-06 20:05 | 45.02266 | -66.90194 | 36788 ft | 404 kts | 241° |
| 2026-05-06 20:06 | 45.00920 | -66.93676 | 36924 ft | 403 kts | 242° |
| 2026-05-06 20:06 | 44.99557 | -66.97159 | 37033 ft | 403 kts | 241° |
| 2026-05-06 20:06 | 44.98151 | -67.00593 | 37180 ft | 403 kts | 240° |
| 2026-05-06 20:06 | 44.96751 | -67.04028 | 37309 ft | 403 kts | 241° |
| 2026-05-06 20:07 | 44.95401 | -67.07444 | 37451 ft | 403 kts | 242° |
| 2026-05-06 20:07 | 44.94088 | -67.10931 | 37599 ft | 402 kts | 243° |
| 2026-05-06 20:07 | 44.92745 | -67.14388 | 37734 ft | 402 kts | 241° |
| 2026-05-06 20:07 | 44.91343 | -67.17803 | 37858 ft | 401 kts | 240° |
| 2026-05-06 20:08 | 44.89806 | -67.21084 | 37991 ft | 402 kts | 234° |
| 2026-05-06 20:08 | 44.88002 | -67.24117 | 38064 ft | 403 kts | 231° |
| 2026-05-06 20:08 | 44.84621 | -67.30395 | 38056 ft | 400 kts | 240° |
| 2026-05-06 20:09 | 44.81771 | -67.37112 | 38056 ft | 399 kts | 242° |
| 2026-05-06 20:09 | 44.79002 | -67.43822 | 38079 ft | 399 kts | 241° |
| 2026-05-06 20:10 | 44.76224 | -67.50517 | 38060 ft | 394 kts | 241° |
| 2026-05-06 20:10 | 44.73554 | -67.57249 | 38058 ft | 392 kts | 242° |
| 2026-05-06 20:11 | 44.70809 | -67.63895 | 38047 ft | 393 kts | 240° |
| 2026-05-06 20:11 | 44.68041 | -67.70470 | 38050 ft | 393 kts | 241° |
| 2026-05-06 20:12 | 44.65792 | -67.76020 | 38050 ft | 393 kts | 241° |
| 2026-05-06 20:12 | 44.63155 | -67.82757 | 38052 ft | 393 kts | 241° |
| 2026-05-06 20:13 | 44.60413 | -67.89405 | 38057 ft | 393 kts | 240° |
| 2026-05-06 20:13 | 44.57660 | -67.96048 | 38047 ft | 393 kts | 240° |
| 2026-05-06 20:14 | 44.54909 | -68.02637 | 38043 ft | 394 kts | 241° |
| 2026-05-06 20:14 | 44.52194 | -68.09309 | 38047 ft | 394 kts | 239° |
| 2026-05-06 20:15 | 44.49437 | -68.15978 | 38038 ft | 395 kts | 240° |
| 2026-05-06 20:15 | 44.46648 | -68.22627 | 38032 ft | 395 kts | 239° |
| 2026-05-06 20:16 | 44.43856 | -68.29259 | 38029 ft | 396 kts | 240° |
| 2026-05-06 20:16 | 44.41083 | -68.35883 | 38031 ft | 398 kts | 239° |
| 2026-05-06 20:17 | 44.38277 | -68.42560 | 38030 ft | 398 kts | 239° |
| 2026-05-06 20:17 | 44.35471 | -68.49235 | 38034 ft | 398 kts | 239° |
| 2026-05-06 20:18 | 44.32659 | -68.55908 | 38036 ft | 398 kts | 239° |
| 2026-05-06 20:18 | 44.29859 | -68.62519 | 38031 ft | 398 kts | 240° |
| 2026-05-06 20:19 | 44.27055 | -68.69194 | 38022 ft | 398 kts | 240° |
| 2026-05-06 20:19 | 44.24236 | -68.75848 | 38018 ft | 398 kts | 240° |
| 2026-05-06 20:20 | 44.21418 | -68.82485 | 38015 ft | 398 kts | 240° |
| 2026-05-06 20:20 | 44.18594 | -68.89076 | 38015 ft | 398 kts | 239° |
| 2026-05-06 20:21 | 44.15771 | -68.95709 | 38020 ft | 398 kts | 240° |
| 2026-05-06 20:21 | 44.12928 | -69.02339 | 38019 ft | 398 kts | 240° |
| 2026-05-06 20:22 | 44.10098 | -69.08968 | 38028 ft | 398 kts | 240° |
| 2026-05-06 20:22 | 44.07252 | -69.15584 | 38025 ft | 398 kts | 240° |
| 2026-05-06 20:23 | 44.04462 | -69.22200 | 38002 ft | 398 kts | 240° |
| 2026-05-06 20:23 | 44.01604 | -69.28797 | 38022 ft | 398 kts | 240° |
| 2026-05-06 20:24 | 43.98718 | -69.35367 | 38015 ft | 398 kts | 240° |
| 2026-05-06 20:24 | 43.95828 | -69.41949 | 37998 ft | 398 kts | 239° |
| 2026-05-06 20:25 | 43.92922 | -69.48508 | 38003 ft | 398 kts | 239° |
| 2026-05-06 20:25 | 43.90041 | -69.55079 | 37991 ft | 398 kts | 240° |
| 2026-05-06 20:26 | 43.87203 | -69.61616 | 38003 ft | 398 kts | 242° |
| 2026-05-06 20:26 | 43.84410 | -69.68233 | 38005 ft | 398 kts | 241° |
| 2026-05-06 20:27 | 43.81497 | -69.74791 | 37835 ft | 397 kts | 240° |
| 2026-05-06 20:27 | 43.80103 | -69.78043 | 38145 ft | 396 kts | 241° |
| 2026-05-06 20:27 | 43.78702 | -69.81372 | 38088 ft | 401 kts | 241° |
| 2026-05-06 20:28 | 43.75775 | -69.87910 | 38013 ft | 398 kts | 239° |
| 2026-05-06 20:28 | 43.72834 | -69.94411 | 37994 ft | 399 kts | 240° |
| 2026-05-06 20:29 | 43.69895 | -70.00929 | 37991 ft | 399 kts | 240° |
| 2026-05-06 20:29 | 43.67010 | -70.07435 | 37969 ft | 399 kts | 241° |
| 2026-05-06 20:30 | 43.62787 | -70.17353 | 37947 ft | 399 kts | 240° |
| 2026-05-06 20:31 | 43.59821 | -70.23831 | 37967 ft | 399 kts | 239° |
| 2026-05-06 20:31 | 43.56889 | -70.30287 | 37952 ft | 398 kts | 242° |
| 2026-05-06 20:32 | 43.54087 | -70.36878 | 37949 ft | 398 kts | 242° |
| 2026-05-06 20:32 | 43.51219 | -70.43437 | 37959 ft | 399 kts | 240° |
| 2026-05-06 20:33 | 43.48285 | -70.49943 | 37944 ft | 400 kts | 240° |
| 2026-05-06 20:33 | 43.45327 | -70.56416 | 37952 ft | 398 kts | 241° |
| 2026-05-06 20:34 | 43.42202 | -70.62668 | 37960 ft | 400 kts | 235° |
| 2026-05-06 20:34 | 43.38611 | -70.68542 | 37959 ft | 402 kts | 233° |
| 2026-05-06 20:35 | 43.35028 | -70.74434 | 37952 ft | 401 kts | 234° |
| 2026-05-06 20:35 | 43.31529 | -70.80410 | 37937 ft | 400 kts | 236° |
| 2026-05-06 20:36 | 43.28075 | -70.86357 | 37938 ft | 400 kts | 235° |
| 2026-05-06 20:36 | 43.24583 | -70.92312 | 37945 ft | 400 kts | 236° |
| 2026-05-06 20:37 | 43.21151 | -70.98308 | 37942 ft | 399 kts | 236° |
| 2026-05-06 20:37 | 43.17659 | -71.04264 | 37937 ft | 400 kts | 235° |
| 2026-05-06 20:38 | 43.14088 | -71.10123 | 37944 ft | 400 kts | 236° |
| 2026-05-06 20:38 | 43.10633 | -71.16039 | 37948 ft | 400 kts | 235° |
| 2026-05-06 20:39 | 43.07095 | -71.21940 | 37952 ft | 400 kts | 236° |
| 2026-05-06 20:39 | 43.03659 | -71.27908 | 37933 ft | 399 kts | 236° |
| 2026-05-06 20:40 | 43.00129 | -71.33785 | 37957 ft | 398 kts | 236° |
| 2026-05-06 20:40 | 42.96691 | -71.39671 | 37935 ft | 399 kts | 236° |
| 2026-05-06 20:41 | 42.93101 | -71.45467 | 37936 ft | 399 kts | 235° |
| 2026-05-06 20:41 | 42.89621 | -71.51363 | 37907 ft | 398 kts | 237° |
| 2026-05-06 20:42 | 42.86146 | -71.57230 | 37982 ft | 397 kts | 236° |
| 2026-05-06 20:42 | 42.82720 | -71.63094 | 37965 ft | 397 kts | 236° |
| 2026-05-06 20:43 | 42.79205 | -71.68914 | 37964 ft | 398 kts | 236° |
| 2026-05-06 20:43 | 42.75732 | -71.74760 | 37941 ft | 397 kts | 236° |
| 2026-05-06 20:44 | 42.72212 | -71.80557 | 37946 ft | 397 kts | 236° |
| 2026-05-06 20:44 | 42.68716 | -71.86297 | 37961 ft | 396 kts | 236° |
| 2026-05-06 20:45 | 42.65230 | -71.92086 | 37995 ft | 395 kts | 237° |
| 2026-05-06 20:45 | 42.61754 | -71.97885 | 37968 ft | 396 kts | 236° |
| 2026-05-06 20:46 | 42.58254 | -72.03666 | 37950 ft | 396 kts | 236° |
| 2026-05-06 20:46 | 42.54810 | -72.09409 | 37957 ft | 395 kts | 237° |
| 2026-05-06 20:47 | 42.51271 | -72.15124 | 37953 ft | 395 kts | 236° |
| 2026-05-06 20:47 | 42.47756 | -72.20862 | 37959 ft | 394 kts | 237° |
| 2026-05-06 20:48 | 42.44221 | -72.26561 | 37985 ft | 395 kts | 236° |
| 2026-05-06 20:48 | 42.40740 | -72.32277 | 37952 ft | 391 kts | 238° |
| 2026-05-06 20:49 | 42.37355 | -72.37966 | 37954 ft | 390 kts | 237° |
| 2026-05-06 20:49 | 42.33864 | -72.43600 | 37934 ft | 390 kts | 237° |
| 2026-05-06 20:50 | 42.30436 | -72.49273 | 37933 ft | 389 kts | 237° |
| 2026-05-06 20:50 | 42.26953 | -72.54846 | 37906 ft | 391 kts | 236° |
| 2026-05-06 20:51 | 42.23352 | -72.60329 | 37959 ft | 389 kts | 237° |
| 2026-05-06 20:51 | 42.19978 | -72.65975 | 37937 ft | 385 kts | 239° |
| 2026-05-06 20:52 | 42.16619 | -72.71642 | 37957 ft | 385 kts | 238° |
| 2026-05-06 20:52 | 42.13184 | -72.77223 | 37956 ft | 386 kts | 237° |
| 2026-05-06 20:53 | 42.09771 | -72.82757 | 37955 ft | 386 kts | 238° |
| 2026-05-06 20:53 | 42.06422 | -72.88383 | 37953 ft | 385 kts | 239° |
| 2026-05-06 20:54 | 42.03103 | -72.94037 | 37955 ft | 384 kts | 239° |
| 2026-05-06 20:54 | 41.99805 | -72.99710 | 37968 ft | 384 kts | 239° |
| 2026-05-06 20:55 | 41.96508 | -73.05285 | 37955 ft | 387 kts | 233° |
| 2026-05-06 20:55 | 41.94399 | -73.07641 | 37916 ft | 399 kts | 225° |
| 2026-05-06 20:55 | 41.92050 | -73.09667 | 37980 ft | 403 kts | 223° |
| 2026-05-06 20:56 | 41.87271 | -73.13611 | 37965 ft | 405 kts | 223° |
| 2026-05-06 20:56 | 41.82571 | -73.17726 | 37983 ft | 402 kts | 225° |
| 2026-05-06 20:57 | 41.77859 | -73.21825 | 37967 ft | 405 kts | 223° |
| 2026-05-06 20:57 | 41.73032 | -73.25769 | 37981 ft | 407 kts | 223° |
| 2026-05-06 20:58 | 41.68252 | -73.29784 | 37975 ft | 401 kts | 227° |
| 2026-05-06 20:58 | 41.66209 | -73.32211 | 37982 ft | 386 kts | 237° |
| 2026-05-06 20:58 | 41.64443 | -73.34876 | 37999 ft | 384 kts | 237° |
| 2026-05-06 20:59 | 41.60753 | -73.40045 | 37989 ft | 387 kts | 235° |
| 2026-05-06 20:59 | 41.57141 | -73.45333 | 37988 ft | 384 kts | 237° |
| 2026-05-06 21:00 | 41.53561 | -73.50637 | 37987 ft | 383 kts | 238° |
| 2026-05-06 21:00 | 41.50097 | -73.55988 | 37980 ft | 383 kts | 238° |
| 2026-05-06 21:01 | 41.46534 | -73.61293 | 37975 ft | 385 kts | 236° |
| 2026-05-06 21:01 | 41.43537 | -73.65686 | 37975 ft | 382 kts | 239° |
| 2026-05-06 21:02 | 41.40108 | -73.71087 | 37975 ft | 381 kts | 238° |
| 2026-05-06 21:02 | 41.36618 | -73.76403 | 37981 ft | 380 kts | 239° |
| 2026-05-06 21:03 | 41.33153 | -73.81734 | 37978 ft | 381 kts | 237° |
| 2026-05-06 21:03 | 41.29678 | -73.87001 | 37975 ft | 380 kts | 238° |
| 2026-05-06 21:04 | 41.26127 | -73.92261 | 37924 ft | 382 kts | 237° |
| 2026-05-06 21:04 | 41.22534 | -73.97491 | 37964 ft | 383 kts | 238° |
| 2026-05-06 21:05 | 41.19009 | -74.02742 | 37986 ft | 383 kts | 238° |
| 2026-05-06 21:05 | 41.15435 | -74.07982 | 37978 ft | 382 kts | 238° |
| 2026-05-06 21:06 | 41.12024 | -74.13335 | 37973 ft | 378 kts | 240° |
| 2026-05-06 21:06 | 41.08674 | -74.18684 | 37946 ft | 379 kts | 240° |
| 2026-05-06 21:07 | 41.05360 | -74.24105 | 37968 ft | 379 kts | 240° |
| 2026-05-06 21:07 | 41.02024 | -74.29519 | 37971 ft | 380 kts | 239° |
| 2026-05-06 21:08 | 40.98619 | -74.34890 | 37971 ft | 380 kts | 239° |
| 2026-05-06 21:08 | 40.95250 | -74.40268 | 37970 ft | 378 kts | 240° |
| 2026-05-06 21:09 | 40.91903 | -74.45632 | 37947 ft | 376 kts | 240° |
| 2026-05-06 21:09 | 40.88567 | -74.50934 | 37977 ft | 378 kts | 240° |
| 2026-05-06 21:10 | 40.85307 | -74.56359 | 37972 ft | 374 kts | 243° |
| 2026-05-06 21:10 | 40.82040 | -74.61786 | 37971 ft | 379 kts | 239° |
| 2026-05-06 21:11 | 40.78609 | -74.67028 | 37973 ft | 378 kts | 240° |
| 2026-05-06 21:11 | 40.75242 | -74.72369 | 37890 ft | 377 kts | 240° |
| 2026-05-06 21:12 | 40.71922 | -74.77722 | 37949 ft | 379 kts | 240° |
| 2026-05-06 21:12 | 40.68499 | -74.83021 | 37964 ft | 378 kts | 240° |
| 2026-05-06 21:13 | 40.65248 | -74.88399 | 37972 ft | 376 kts | 242° |
| 2026-05-06 21:13 | 40.61942 | -74.93767 | 37976 ft | 379 kts | 240° |
| 2026-05-06 21:14 | 40.58507 | -74.99053 | 37980 ft | 379 kts | 239° |
| 2026-05-06 21:14 | 40.55095 | -75.04342 | 37962 ft | 379 kts | 240° |
| 2026-05-06 21:15 | 40.51672 | -75.09594 | 37990 ft | 378 kts | 240° |
| 2026-05-06 21:15 | 40.48320 | -75.14879 | 37989 ft | 376 kts | 240° |
| 2026-05-06 21:16 | 40.44955 | -75.20145 | 38004 ft | 375 kts | 240° |
| 2026-05-06 21:16 | 40.41671 | -75.25475 | 38000 ft | 374 kts | 242° |
| 2026-05-06 21:17 | 40.38407 | -75.30791 | 37968 ft | 375 kts | 240° |
| 2026-05-06 21:17 | 40.35040 | -75.36012 | 37987 ft | 377 kts | 240° |
| 2026-05-06 21:18 | 40.31707 | -75.41299 | 37996 ft | 376 kts | 241° |
| 2026-05-06 21:18 | 40.28360 | -75.46583 | 38007 ft | 375 kts | 240° |
| 2026-05-06 21:19 | 40.24977 | -75.51763 | 38000 ft | 373 kts | 240° |
| 2026-05-06 21:19 | 40.21850 | -75.57107 | 37949 ft | 366 kts | 245° |
| 2026-05-06 21:20 | 40.19003 | -75.62647 | 37986 ft | 366 kts | 245° |
| 2026-05-06 21:20 | 40.16246 | -75.68195 | 37996 ft | 366 kts | 246° |
| 2026-05-06 21:21 | 40.13339 | -75.73743 | 37992 ft | 370 kts | 243° |
| 2026-05-06 21:21 | 40.10402 | -75.79174 | 38027 ft | 366 kts | 246° |
| 2026-05-06 21:22 | 40.07643 | -75.84735 | 38004 ft | 363 kts | 246° |
| 2026-05-06 21:22 | 40.04890 | -75.90273 | 38000 ft | 362 kts | 246° |
| 2026-05-06 21:23 | 40.02147 | -75.95811 | 37980 ft | 365 kts | 245° |
| 2026-05-06 21:23 | 39.99419 | -76.01345 | 37988 ft | 365 kts | 245° |
| 2026-05-06 21:24 | 39.96526 | -76.06820 | 37988 ft | 366 kts | 245° |
| 2026-05-06 21:24 | 39.93729 | -76.12361 | 37984 ft | 364 kts | 246° |
| 2026-05-06 21:25 | 39.91009 | -76.17893 | 37983 ft | 364 kts | 245° |
| 2026-05-06 21:25 | 39.88216 | -76.23373 | 37989 ft | 364 kts | 244° |
| 2026-05-06 21:26 | 39.85300 | -76.28770 | 37987 ft | 363 kts | 245° |
| 2026-05-06 21:26 | 39.82510 | -76.34256 | 37998 ft | 363 kts | 245° |
| 2026-05-06 21:27 | 39.79732 | -76.39746 | 37992 ft | 362 kts | 246° |
| 2026-05-06 21:27 | 39.77018 | -76.45218 | 37994 ft | 362 kts | 246° |
| 2026-05-06 21:28 | 39.74212 | -76.50659 | 37991 ft | 364 kts | 244° |
| 2026-05-06 21:28 | 39.71300 | -76.56049 | 37998 ft | 362 kts | 245° |
| 2026-05-06 21:29 | 39.68531 | -76.61507 | 37984 ft | 362 kts | 245° |
| 2026-05-06 21:29 | 39.65680 | -76.66920 | 37995 ft | 363 kts | 245° |
| 2026-05-06 21:30 | 39.62928 | -76.72391 | 37996 ft | 363 kts | 245° |
| 2026-05-06 21:30 | 39.60103 | -76.77831 | 38002 ft | 363 kts | 245° |
| 2026-05-06 21:31 | 39.57345 | -76.83300 | 38003 ft | 362 kts | 246° |
| 2026-05-06 21:31 | 39.54468 | -76.88705 | 38020 ft | 365 kts | 244° |
| 2026-05-06 21:32 | 39.51645 | -76.94069 | 38013 ft | 362 kts | 245° |
| 2026-05-06 21:32 | 39.46868 | -77.01847 | 38014 ft | 375 kts | 237° |
| 2026-05-06 21:33 | 39.43250 | -77.06720 | 38012 ft | 375 kts | 237° |
| 2026-05-06 21:33 | 39.39679 | -77.11629 | 38017 ft | 375 kts | 238° |
| 2026-05-06 21:34 | 39.36100 | -77.16540 | 38022 ft | 375 kts | 237° |
| 2026-05-06 21:34 | 39.32543 | -77.21410 | 38026 ft | 375 kts | 237° |
| 2026-05-06 21:35 | 39.28961 | -77.26312 | 38016 ft | 376 kts | 237° |
| 2026-05-06 21:35 | 39.25370 | -77.31211 | 38019 ft | 376 kts | 237° |
| 2026-05-06 21:36 | 39.21772 | -77.36112 | 38024 ft | 376 kts | 237° |
| 2026-05-06 21:36 | 39.18172 | -77.41009 | 38014 ft | 376 kts | 237° |
| 2026-05-06 21:37 | 39.14565 | -77.45913 | 38014 ft | 376 kts | 237° |
| 2026-05-06 21:37 | 39.10988 | -77.50767 | 38003 ft | 377 kts | 237° |
| 2026-05-06 21:38 | 39.07345 | -77.55709 | 38012 ft | 381 kts | 237° |
| 2026-05-06 21:38 | 39.03685 | -77.60667 | 38020 ft | 382 kts | 237° |
| 2026-05-06 21:39 | 38.99579 | -77.65185 | 38007 ft | 403 kts | 224° |
| 2026-05-06 21:39 | 38.97064 | -77.66865 | 38019 ft | 414 kts | 218° |
| 2026-05-06 21:39 | 38.94420 | -77.68288 | 38010 ft | 420 kts | 215° |
| 2026-05-06 21:40 | 38.88858 | -77.70802 | 37997 ft | 427 kts | 212° |
| 2026-05-06 21:40 | 38.83116 | -77.73039 | 38003 ft | 436 kts | 208° |
| 2026-05-06 21:41 | 38.77131 | -77.74726 | 38009 ft | 441 kts | 207° |
| 2026-05-06 21:41 | 38.74270 | -77.75765 | 37992 ft | 423 kts | 216° |
| 2026-05-06 21:41 | 38.71685 | -77.77375 | 38009 ft | 403 kts | 225° |
| 2026-05-06 21:42 | 38.69450 | -77.79433 | 37985 ft | 390 kts | 232° |
| 2026-05-06 21:42 | 38.67452 | -77.81756 | 37995 ft | 385 kts | 236° |
| 2026-05-06 21:42 | 38.63914 | -77.86798 | 38022 ft | 375 kts | 242° |
| 2026-05-06 21:43 | 38.60840 | -77.92177 | 38022 ft | 375 kts | 242° |
| 2026-05-06 21:43 | 38.57653 | -77.97440 | 38022 ft | 376 kts | 242° |
| 2026-05-06 21:44 | 38.54507 | -78.02777 | 38017 ft | 374 kts | 243° |
| 2026-05-06 21:44 | 38.51444 | -78.08150 | 38016 ft | 373 kts | 243° |
| 2026-05-06 21:45 | 38.48367 | -78.13505 | 38000 ft | 375 kts | 242° |
| 2026-05-06 21:45 | 38.45214 | -78.18764 | 38007 ft | 376 kts | 241° |
| 2026-05-06 21:46 | 38.42058 | -78.24070 | 38012 ft | 374 kts | 243° |
| 2026-05-06 21:46 | 38.38975 | -78.29429 | 38005 ft | 375 kts | 242° |
| 2026-05-06 21:47 | 38.35796 | -78.34713 | 38008 ft | 375 kts | 242° |
| 2026-05-06 21:47 | 38.32640 | -78.40003 | 38018 ft | 374 kts | 242° |
| 2026-05-06 21:48 | 38.29518 | -78.45266 | 38011 ft | 374 kts | 242° |
| 2026-05-06 21:48 | 38.26884 | -78.49692 | 38014 ft | 374 kts | 242° |
| 2026-05-06 21:49 | 38.23757 | -78.54937 | 38019 ft | 374 kts | 242° |
| 2026-05-06 21:49 | 38.20603 | -78.60220 | 38019 ft | 374 kts | 242° |
| 2026-05-06 21:50 | 38.17447 | -78.65495 | 38019 ft | 373 kts | 242° |
| 2026-05-06 21:50 | 38.14292 | -78.70760 | 38025 ft | 373 kts | 242° |
| 2026-05-06 21:51 | 38.11156 | -78.75981 | 38006 ft | 371 kts | 242° |
| 2026-05-06 21:51 | 38.08046 | -78.81162 | 38026 ft | 372 kts | 243° |
| 2026-05-06 21:52 | 38.04901 | -78.86391 | 38030 ft | 372 kts | 243° |
| 2026-05-06 21:52 | 38.01744 | -78.91625 | 38028 ft | 373 kts | 242° |
| 2026-05-06 21:53 | 37.98591 | -78.96844 | 38024 ft | 373 kts | 242° |
| 2026-05-06 21:53 | 37.95453 | -79.02029 | 38027 ft | 373 kts | 242° |
| 2026-05-06 21:54 | 37.92298 | -79.07241 | 38059 ft | 372 kts | 242° |
| 2026-05-06 21:54 | 37.88969 | -79.12309 | 38091 ft | 376 kts | 238° |
| 2026-05-06 21:55 | 37.85423 | -79.17147 | 38131 ft | 377 kts | 238° |
| 2026-05-06 21:55 | 37.81899 | -79.22058 | 38158 ft | 376 kts | 239° |
| 2026-05-06 21:56 | 37.78371 | -79.26985 | 38180 ft | 377 kts | 238° |
| 2026-05-06 21:56 | 37.74863 | -79.31855 | 38194 ft | 376 kts | 238° |
| 2026-05-06 21:57 | 37.71335 | -79.36753 | 38194 ft | 376 kts | 238° |
| 2026-05-06 21:57 | 37.67801 | -79.41655 | 38174 ft | 378 kts | 238° |
| 2026-05-06 21:58 | 37.64277 | -79.46532 | 38157 ft | 377 kts | 238° |
| 2026-05-06 21:58 | 37.60741 | -79.51411 | 38133 ft | 376 kts | 238° |
| 2026-05-06 21:59 | 37.57208 | -79.56286 | 38098 ft | 376 kts | 238° |
| 2026-05-06 21:59 | 37.53691 | -79.61129 | 38068 ft | 377 kts | 238° |
| 2026-05-06 22:00 | 37.50154 | -79.65997 | 38050 ft | 376 kts | 238° |
| 2026-05-06 22:00 | 37.46610 | -79.70864 | 38056 ft | 377 kts | 238° |
| 2026-05-06 22:01 | 37.43069 | -79.75723 | 38068 ft | 377 kts | 238° |
| 2026-05-06 22:01 | 37.39523 | -79.80577 | 38092 ft | 377 kts | 238° |
| 2026-05-06 22:02 | 37.35984 | -79.85409 | 38086 ft | 375 kts | 238° |
| 2026-05-06 22:02 | 37.32460 | -79.90223 | 38090 ft | 374 kts | 238° |
| 2026-05-06 22:03 | 37.28953 | -79.95006 | 38089 ft | 374 kts | 238° |
| 2026-05-06 22:03 | 37.25416 | -79.99820 | 38059 ft | 375 kts | 238° |
| 2026-05-06 22:04 | 37.21872 | -80.04638 | 38078 ft | 375 kts | 238° |
| 2026-05-06 22:04 | 37.18330 | -80.09444 | 38093 ft | 375 kts | 238° |
| 2026-05-06 22:05 | 37.14779 | -80.14256 | 38099 ft | 375 kts | 238° |
| 2026-05-06 22:05 | 37.11253 | -80.19028 | 38103 ft | 375 kts | 238° |
| 2026-05-06 22:06 | 37.07712 | -80.23806 | 38110 ft | 373 kts | 238° |
| 2026-05-06 22:06 | 37.04176 | -80.28579 | 38107 ft | 376 kts | 238° |
| 2026-05-06 22:07 | 37.00550 | -80.33358 | 38107 ft | 379 kts | 237° |
| 2026-05-06 22:07 | 36.96817 | -80.38056 | 38096 ft | 380 kts | 237° |
| 2026-05-06 22:08 | 36.93132 | -80.42742 | 38094 ft | 379 kts | 237° |
| 2026-05-06 22:08 | 36.89439 | -80.47476 | 38086 ft | 379 kts | 237° |
| 2026-05-06 22:09 | 36.85744 | -80.52204 | 38079 ft | 379 kts | 237° |
| 2026-05-06 22:09 | 36.82074 | -80.56896 | 38079 ft | 380 kts | 237° |
| 2026-05-06 22:10 | 36.78383 | -80.61603 | 38081 ft | 378 kts | 237° |
| 2026-05-06 22:10 | 36.74701 | -80.66296 | 38130 ft | 378 kts | 237° |
| 2026-05-06 22:11 | 36.71018 | -80.70985 | 38140 ft | 378 kts | 237° |
| 2026-05-06 22:11 | 36.67353 | -80.75642 | 38136 ft | 378 kts | 237° |
| 2026-05-06 22:12 | 36.63668 | -80.80320 | 38133 ft | 378 kts | 237° |
| 2026-05-06 22:12 | 36.59976 | -80.85001 | 38123 ft | 380 kts | 237° |
| 2026-05-06 22:13 | 36.56271 | -80.89687 | 38114 ft | 380 kts | 237° |
| 2026-05-06 22:13 | 36.52557 | -80.94378 | 38100 ft | 379 kts | 236° |
| 2026-05-06 22:14 | 36.48858 | -80.99034 | 38117 ft | 377 kts | 236° |
| 2026-05-06 22:14 | 36.45174 | -81.03677 | 38133 ft | 377 kts | 236° |
| 2026-05-06 22:15 | 36.41513 | -81.08292 | 38148 ft | 377 kts | 237° |
| 2026-05-06 22:15 | 36.37824 | -81.12939 | 38153 ft | 379 kts | 236° |
| 2026-05-06 22:16 | 36.34106 | -81.17596 | 38166 ft | 380 kts | 236° |
| 2026-05-06 22:16 | 36.30369 | -81.22264 | 38166 ft | 380 kts | 236° |
| 2026-05-06 22:17 | 36.26650 | -81.26918 | 38162 ft | 380 kts | 236° |
| 2026-05-06 22:17 | 36.22950 | -81.31544 | 38154 ft | 380 kts | 236° |
| 2026-05-06 22:18 | 36.19228 | -81.36180 | 38139 ft | 379 kts | 236° |
| 2026-05-06 22:18 | 36.15509 | -81.40814 | 38120 ft | 379 kts | 236° |
| 2026-05-06 22:19 | 36.11813 | -81.45423 | 38110 ft | 379 kts | 236° |
| 2026-05-06 22:19 | 36.08088 | -81.50050 | 38094 ft | 379 kts | 236° |
| 2026-05-06 22:20 | 36.04368 | -81.54661 | 38091 ft | 378 kts | 236° |
| 2026-05-06 22:20 | 36.00653 | -81.59259 | 38094 ft | 378 kts | 236° |
| 2026-05-06 22:21 | 35.96925 | -81.63861 | 38096 ft | 379 kts | 236° |
| 2026-05-06 22:21 | 35.93213 | -81.68442 | 38099 ft | 379 kts | 236° |
| 2026-05-06 22:22 | 35.89480 | -81.73045 | 38093 ft | 379 kts | 236° |
| 2026-05-06 22:22 | 35.85754 | -81.77634 | 38151 ft | 379 kts | 236° |
| 2026-05-06 22:23 | 35.82021 | -81.82223 | 38145 ft | 378 kts | 236° |
| 2026-05-06 22:23 | 35.78313 | -81.86779 | 38139 ft | 379 kts | 236° |
| 2026-05-06 22:24 | 35.74580 | -81.91357 | 38122 ft | 379 kts | 236° |
| 2026-05-06 22:24 | 35.70840 | -81.95933 | 38118 ft | 379 kts | 236° |
| 2026-05-06 22:25 | 35.67108 | -82.00506 | 38112 ft | 379 kts | 235° |
| 2026-05-06 22:25 | 35.63390 | -82.05041 | 38122 ft | 379 kts | 236° |
| 2026-05-06 22:26 | 35.59636 | -82.09611 | 38123 ft | 379 kts | 236° |
| 2026-05-06 22:26 | 35.55888 | -82.14171 | 38132 ft | 379 kts | 235° |
| 2026-05-06 22:27 | 35.52165 | -82.18699 | 38125 ft | 378 kts | 236° |
| 2026-05-06 22:27 | 35.48426 | -82.23254 | 38128 ft | 379 kts | 236° |
| 2026-05-06 22:28 | 35.44658 | -82.27830 | 38119 ft | 381 kts | 236° |
| 2026-05-06 22:28 | 35.40879 | -82.32394 | 38114 ft | 381 kts | 235° |
| 2026-05-06 22:29 | 35.37118 | -82.36941 | 38110 ft | 381 kts | 235° |
| 2026-05-06 22:29 | 35.33332 | -82.41503 | 38118 ft | 381 kts | 235° |
| 2026-05-06 22:30 | 35.29564 | -82.46065 | 38125 ft | 380 kts | 235° |
| 2026-05-06 22:30 | 35.25778 | -82.50606 | 38144 ft | 381 kts | 235° |
| 2026-05-06 22:31 | 35.22010 | -82.55138 | 38154 ft | 383 kts | 235° |
| 2026-05-06 22:31 | 35.18208 | -82.59710 | 38146 ft | 383 kts | 235° |
| 2026-05-06 22:32 | 35.14341 | -82.64237 | 38126 ft | 386 kts | 233° |
| 2026-05-06 22:32 | 35.10365 | -82.68671 | 37853 ft | 388 kts | 233° |
| 2026-05-06 22:33 | 35.08403 | -82.70886 | 37352 ft | 379 kts | 233° |
| 2026-05-06 22:33 | 35.06513 | -82.73049 | 36892 ft | 375 kts | 233° |
| 2026-05-06 22:33 | 35.04619 | -82.75242 | 36432 ft | 376 kts | 233° |
| 2026-05-06 22:33 | 35.02716 | -82.77454 | 35974 ft | 379 kts | 233° |
| 2026-05-06 22:34 | 35.00796 | -82.79690 | 35520 ft | 385 kts | 232° |
| 2026-05-06 22:34 | 34.98843 | -82.81960 | 35061 ft | 390 kts | 231° |
| 2026-05-06 22:34 | 34.96859 | -82.84247 | 34626 ft | 395 kts | 231° |
| 2026-05-06 22:34 | 34.94847 | -82.86568 | 34183 ft | 399 kts | 231° |
| 2026-05-06 22:35 | 34.92825 | -82.88906 | 33714 ft | 402 kts | 230° |
| 2026-05-06 22:35 | 34.90786 | -82.91262 | 33226 ft | 406 kts | 230° |
| 2026-05-06 22:35 | 34.88727 | -82.93633 | 32719 ft | 409 kts | 230° |
| 2026-05-06 22:35 | 34.86645 | -82.96024 | 32227 ft | 412 kts | 230° |
| 2026-05-06 22:36 | 34.84552 | -82.98430 | 31755 ft | 415 kts | 230° |
| 2026-05-06 22:36 | 34.82470 | -83.00825 | 31269 ft | 418 kts | 229° |
| 2026-05-06 22:36 | 34.80346 | -83.03266 | 30800 ft | 422 kts | 229° |
| 2026-05-06 22:36 | 34.78205 | -83.05727 | 30315 ft | 425 kts | 229° |
| 2026-05-06 22:37 | 34.76030 | -83.08224 | 29818 ft | 430 kts | 229° |
| 2026-05-06 22:37 | 34.73841 | -83.10730 | 29250 ft | 434 kts | 229° |
| 2026-05-06 22:37 | 34.72381 | -83.12401 | 28896 ft | 435 kts | 229° |
| 2026-05-06 22:37 | 34.70172 | -83.14928 | 28350 ft | 432 kts | 229° |
| 2026-05-06 22:38 | 34.68014 | -83.17388 | 27816 ft | 420 kts | 229° |
| 2026-05-06 22:38 | 34.65215 | -83.20571 | 27172 ft | 412 kts | 229° |
| 2026-05-06 22:38 | 34.63132 | -83.22932 | 26680 ft | 407 kts | 229° |
| 2026-05-06 22:38 | 34.61743 | -83.24512 | 26358 ft | 404 kts | 229° |
| 2026-05-06 22:39 | 34.59706 | -83.26845 | 25906 ft | 401 kts | 229° |
| 2026-05-06 22:39 | 34.57687 | -83.29158 | 25457 ft | 397 kts | 229° |
| 2026-05-06 22:39 | 34.55684 | -83.31448 | 25021 ft | 394 kts | 229° |
| 2026-05-06 22:39 | 34.53720 | -83.33687 | 24586 ft | 391 kts | 229° |
| 2026-05-06 22:40 | 34.51735 | -83.35947 | 24160 ft | 390 kts | 229° |
| 2026-05-06 22:40 | 34.49759 | -83.38195 | 23747 ft | 387 kts | 229° |
| 2026-05-06 22:40 | 34.47801 | -83.40421 | 23302 ft | 384 kts | 229° |
| 2026-05-06 22:40 | 34.45856 | -83.42630 | 22818 ft | 382 kts | 229° |
| 2026-05-06 22:41 | 34.42024 | -83.46979 | 21870 ft | 376 kts | 229° |
| 2026-05-06 22:41 | 34.40118 | -83.49140 | 21433 ft | 374 kts | 229° |
| 2026-05-06 22:41 | 34.38219 | -83.51290 | 20991 ft | 372 kts | 229° |
| 2026-05-06 22:42 | 34.36336 | -83.53422 | 20564 ft | 369 kts | 229° |
| 2026-05-06 22:42 | 34.34463 | -83.55538 | 20145 ft | 367 kts | 229° |
| 2026-05-06 22:42 | 34.32606 | -83.57636 | 19738 ft | 364 kts | 229° |
| 2026-05-06 22:42 | 34.30761 | -83.59720 | 19305 ft | 362 kts | 229° |
| 2026-05-06 22:43 | 34.28921 | -83.61797 | 18902 ft | 360 kts | 228° |
| 2026-05-06 22:43 | 34.27094 | -83.63859 | 18511 ft | 358 kts | 228° |
| 2026-05-06 22:43 | 34.25272 | -83.65914 | 18109 ft | 357 kts | 228° |
| 2026-05-06 22:43 | 34.23462 | -83.67953 | 17674 ft | 354 kts | 228° |
| 2026-05-06 22:44 | 34.21682 | -83.69955 | 17246 ft | 352 kts | 228° |
| 2026-05-06 22:44 | 34.19894 | -83.71966 | 16837 ft | 350 kts | 227° |
| 2026-05-06 22:44 | 34.18118 | -83.73963 | 16424 ft | 347 kts | 227° |
| 2026-05-06 22:44 | 34.16354 | -83.75945 | 16015 ft | 345 kts | 227° |
| 2026-05-06 22:45 | 34.14596 | -83.77920 | 15630 ft | 343 kts | 227° |
| 2026-05-06 22:45 | 34.12852 | -83.79877 | 15237 ft | 341 kts | 227° |
| 2026-05-06 22:45 | 34.11117 | -83.81823 | 14850 ft | 340 kts | 227° |
| 2026-05-06 22:45 | 34.09376 | -83.83745 | 14476 ft | 338 kts | 226° |
| 2026-05-06 22:46 | 34.07619 | -83.85628 | 14301 ft | 337 kts | 225° |
| 2026-05-06 22:46 | 34.05883 | -83.87467 | 14185 ft | 335 kts | 225° |
| 2026-05-06 22:46 | 34.04137 | -83.89326 | 14159 ft | 336 kts | 225° |
| 2026-05-06 22:46 | 34.02391 | -83.91204 | 14145 ft | 335 kts | 225° |
| 2026-05-06 22:47 | 34.00649 | -83.93084 | 14142 ft | 335 kts | 225° |
| 2026-05-06 22:47 | 33.98727 | -83.94704 | 14124 ft | 342 kts | 211° |
| 2026-05-06 22:47 | 33.96454 | -83.95645 | 14139 ft | 350 kts | 199° |
| 2026-05-06 22:47 | 33.94049 | -83.96098 | 14149 ft | 356 kts | 191° |
| 2026-05-06 22:48 | 33.91551 | -83.96169 | 14141 ft | 361 kts | 186° |
| 2026-05-06 22:48 | 33.89043 | -83.96077 | 14139 ft | 361 kts | 185° |
| 2026-05-06 22:48 | 33.86523 | -83.96033 | 13916 ft | 361 kts | 186° |
| 2026-05-06 22:48 | 33.84007 | -83.96040 | 13191 ft | 358 kts | 187° |
| 2026-05-06 22:49 | 33.81535 | -83.96029 | 12405 ft | 354 kts | 186° |
| 2026-05-06 22:49 | 33.79112 | -83.95967 | 11646 ft | 350 kts | 185° |
| 2026-05-06 22:49 | 33.76711 | -83.96138 | 10908 ft | 340 kts | 196° |
| 2026-05-06 22:49 | 33.74468 | -83.96919 | 10202 ft | 331 kts | 206° |
| 2026-05-06 22:50 | 33.72352 | -83.97937 | 9478 ft | 321 kts | 207° |
| 2026-05-06 22:50 | 33.70297 | -83.98877 | 8723 ft | 311 kts | 205° |
| 2026-05-06 22:50 | 33.68305 | -83.99714 | 7929 ft | 287 kts | 204° |
| 2026-05-06 22:50 | 33.66504 | -84.00416 | 7180 ft | 259 kts | 197° |
| 2026-05-06 22:51 | 33.64762 | -84.00419 | 6470 ft | 248 kts | 175° |
| 2026-05-06 22:51 | 33.63120 | -84.00247 | 5769 ft | 230 kts | 197° |
| 2026-05-06 22:51 | 33.61758 | -84.01018 | 5154 ft | 210 kts | 228° |
| 2026-05-06 22:51 | 33.61097 | -84.02498 | 4916 ft | 202 kts | 261° |
| 2026-05-06 22:52 | 33.61294 | -84.04033 | 5079 ft | 177 kts | 286° |
| 2026-05-06 22:52 | 33.61862 | -84.05336 | 5790 ft | 180 kts | 292° |
| 2026-05-06 22:52 | 33.62512 | -84.06655 | 6104 ft | 184 kts | 294° |
| 2026-05-06 22:52 | 33.63166 | -84.07941 | 6132 ft | 182 kts | 294° |
| 2026-05-06 22:53 | 33.63828 | -84.09226 | 6138 ft | 180 kts | 294° |
| 2026-05-06 22:53 | 33.64189 | -84.10597 | 6157 ft | 171 kts | 268° |
| 2026-05-06 22:53 | 33.64054 | -84.12010 | 6116 ft | 166 kts | 257° |
| 2026-05-06 22:53 | 33.63911 | -84.13331 | 5899 ft | 156 kts | 263° |
| 2026-05-06 22:54 | 33.63943 | -84.14620 | 5586 ft | 157 kts | 270° |
| 2026-05-06 22:54 | 33.64087 | -84.15914 | 5254 ft | 156 kts | 274° |
| 2026-05-06 22:54 | 33.64271 | -84.17189 | 4975 ft | 153 kts | 274° |
| 2026-05-06 22:54 | 33.64545 | -84.18435 | 4660 ft | 154 kts | 278° |
| 2026-05-06 22:55 | 33.64739 | -84.19679 | 4396 ft | 149 kts | 271° |
| 2026-05-06 22:55 | 33.64829 | -84.20906 | 4181 ft | 147 kts | 269° |
| 2026-05-06 22:55 | 33.64869 | -84.22143 | 3997 ft | 149 kts | 267° |
| 2026-05-06 22:55 | 33.64886 | -84.23390 | 3779 ft | 150 kts | 265° |
| 2026-05-06 22:56 | 33.64897 | -84.24643 | 3591 ft | 151 kts | 266° |
| 2026-05-06 22:56 | 33.64907 | -84.25910 | 3397 ft | 152 kts | 265° |
| 2026-05-06 22:56 | 33.64911 | -84.27166 | 3201 ft | 151 kts | 265° |
| 2026-05-06 22:56 | 33.64916 | -84.28427 | 3001 ft | 151 kts | 266° |
| 2026-05-06 22:57 | 33.64921 | -84.29698 | 2805 ft | 150 kts | 266° |
| 2026-05-06 22:57 | 33.64921 | -84.30915 | 2609 ft | 139 kts | 265° |
| 2026-05-06 22:57 | 33.64918 | -84.32022 | 2436 ft | 128 kts | 265° |
| 2026-05-06 22:57 | 33.64917 | -84.33095 | 2289 ft | 129 kts | 265° |
| 2026-05-06 22:58 | 33.64926 | -84.34158 | 2115 ft | 130 kts | 267° |
| 2026-05-06 22:58 | 33.64938 | -84.35275 | 1965 ft | 139 kts | 267° |
| 2026-05-06 22:58 | 33.64937 | -84.36462 | 1760 ft | 143 kts | 266° |
| 2026-05-06 22:58 | 33.64947 | -84.37668 | 1559 ft | 146 kts | 268° |
| 2026-05-06 22:59 | 33.64948 | -84.38907 | 1416 ft | 152 kts | 268° |
| 2026-05-06 22:59 | 33.64962 | -84.40182 | 1213 ft | 149 kts | 268° |
| 2026-05-06 22:59 | 33.64959 | -84.41409 | 1058 ft | 143 kts | 265° |
| 2026-05-06 22:59 | 33.64953 | -84.42437 | 1041 ft | 98 kts | 272° |
| 2026-05-06 23:00 | 33.64954 | -84.43084 | 1040 ft | 60 kts | 270° |
| 2026-05-06 23:00 | 33.64954 | -84.43488 | 1040 ft | 38 kts | 272° |
| 2026-05-06 23:00 | 33.64954 | -84.43700 | 1041 ft | 15 kts | 269° |
| 2026-05-06 23:00 | 33.64953 | -84.43830 | 1040 ft | 13 kts | 270° |
| 2026-05-06 23:01 | 33.64897 | -84.43885 | 1036 ft | 12 kts | 178° |
| 2026-05-06 23:01 | 33.64820 | -84.43855 | 1040 ft | 11 kts | 153° |
| 2026-05-06 23:01 | 33.64740 | -84.43825 | 1040 ft | 13 kts | 170° |
| 2026-05-06 23:01 | 33.64643 | -84.43820 | 1040 ft | 15 kts | 182° |
| 2026-05-06 23:02 | 33.64562 | -84.43814 | 1040 ft | 10 kts | 150° |
| 2026-05-06 23:02 | 33.64542 | -84.43733 | 1040 ft | 12 kts | 90° |
| 2026-05-06 23:02 | 33.64541 | -84.43610 | 1041 ft | 17 kts | 90° |
| 2026-05-06 23:02 | 33.64541 | -84.43451 | 1041 ft | 21 kts | 90° |
| 2026-05-06 23:03 | 33.64541 | -84.43306 | 1041 ft | 18 kts | 90° |
| 2026-05-06 23:03 | 33.64540 | -84.43135 | 1041 ft | 22 kts | 89° |
| 2026-05-06 23:03 | 33.64542 | -84.42935 | 1041 ft | 26 kts | 90° |
| 2026-05-06 23:03 | 33.64542 | -84.42768 | 1040 ft | 20 kts | 90° |
| 2026-05-06 23:04 | 33.64542 | -84.42618 | 1040 ft | 17 kts | 90° |
| 2026-05-06 23:04 | 33.64542 | -84.42473 | 1040 ft | 17 kts | 90° |
| 2026-05-06 23:04 | 33.64541 | -84.42365 | 1040 ft | 12 kts | 89° |
| 2026-05-06 23:04 | 33.64537 | -84.42260 | 1040 ft | 8 kts | 115° |
| 2026-05-06 23:05 | 33.64480 | -84.42239 | 1040 ft | 11 kts | 180° |
| 2026-05-06 23:05 | 33.64395 | -84.42240 | 1040 ft | 14 kts | 180° |
| 2026-05-06 23:05 | 33.64313 | -84.42240 | 1040 ft | 11 kts | 180° |
| 2026-05-06 23:05 | 33.64267 | -84.42277 | 1040 ft | 9 kts | 258° |
| 2026-05-06 23:06 | 33.64264 | -84.42344 | 1040 ft | 6 kts | 269° |
| 2026-05-06 23:06 | 33.64272 | -84.42393 | 1040 ft | 6 kts | 305° |
| 2026-05-06 23:06 | 33.64293 | -84.42428 | 1040 ft | 6 kts | 293° |
| 2026-05-06 23:06 | 33.64299 | -84.42474 | 1040 ft | 4 kts | 272° |
| 2026-05-06 23:07 | 33.64300 | -84.42494 | 1040 ft | 1 kts | 271° |
| 2026-05-06 23:07 | 33.64300 | -84.42503 | 1040 ft | 0 kts | 270° |
| 2026-05-06 23:07 | 33.64300 | -84.42504 | 1040 ft | 1 kts | 270° |
| 2026-05-06 23:08 | 33.64300 | -84.42512 | 1040 ft | 1 kts | 270° |
| 2026-05-06 23:08 | 33.64300 | -84.42513 | 1040 ft | 0 kts | 270° |